<?xml version="1.0" encoding="UTF-8" standalone="no" ?>
<gpx xmlns="http://www.topografix.com/GPX/1/1" xmlns:xsi="http://www.w3.org/2001/XMLSchema-instance" xsi:schemaLocation="http://www.topografix.com/GPX/1/1 http://www.topografix.com/GPX/1/1/gpx.xsd" version="1.1" creator="VisuGPX - https://www.visugpx.com">
  <metadata>
    <name>2026-06-18-46-vers</name>
    <desc><![CDATA[randonnée de 10 km pour environ 300m de dénivelé positif. un circuit en allée-retour sur presque le même chemin le long du Vers, avec juste une bosse : le tour du roc de colonjat et la combe de Iffernet, un circuit bien ombragé]]></desc>
  </metadata>
  <trk>
    <name><![CDATA[2026-06-18-Vers-Tour du Roc de Colonjat-AR 12 km, 240m-H]]></name>
    <trkseg>
      <trkpt lat="44.48549" lon="1.55502">
        <ele>150.8</ele>
      </trkpt>
      <trkpt lat="44.48543" lon="1.55476">
        <ele>145.7</ele>
      </trkpt>
      <trkpt lat="44.48541" lon="1.55442">
        <ele>141.1</ele>
      </trkpt>
      <trkpt lat="44.4853" lon="1.55406">
        <ele>136.3</ele>
      </trkpt>
      <trkpt lat="44.48544" lon="1.55379">
        <ele>135.6</ele>
      </trkpt>
      <trkpt lat="44.48568" lon="1.55374">
        <ele>136.6</ele>
      </trkpt>
      <trkpt lat="44.48592" lon="1.55353">
        <ele>135.5</ele>
      </trkpt>
      <trkpt lat="44.48601" lon="1.55324">
        <ele>134.3</ele>
      </trkpt>
      <trkpt lat="44.48602" lon="1.55296">
        <ele>136.1</ele>
      </trkpt>
      <trkpt lat="44.48624" lon="1.55299">
        <ele>136.9</ele>
      </trkpt>
      <trkpt lat="44.48666" lon="1.55321">
        <ele>137.1</ele>
      </trkpt>
      <trkpt lat="44.48692" lon="1.55338">
        <ele>136.1</ele>
      </trkpt>
      <trkpt lat="44.48707" lon="1.55356">
        <ele>137.7</ele>
      </trkpt>
      <trkpt lat="44.48741" lon="1.55361">
        <ele>137</ele>
      </trkpt>
      <trkpt lat="44.4878" lon="1.55378">
        <ele>139.8</ele>
      </trkpt>
      <trkpt lat="44.4882" lon="1.55405">
        <ele>139.6</ele>
      </trkpt>
      <trkpt lat="44.48823" lon="1.55436">
        <ele>138.4</ele>
      </trkpt>
      <trkpt lat="44.4885" lon="1.55479">
        <ele>138.9</ele>
      </trkpt>
      <trkpt lat="44.48914" lon="1.55591">
        <ele>137.3</ele>
      </trkpt>
      <trkpt lat="44.48943" lon="1.55635">
        <ele>142.2</ele>
      </trkpt>
      <trkpt lat="44.48963" lon="1.5566">
        <ele>141.5</ele>
      </trkpt>
      <trkpt lat="44.49013" lon="1.55709">
        <ele>143.3</ele>
      </trkpt>
      <trkpt lat="44.49065" lon="1.55754">
        <ele>146.6</ele>
      </trkpt>
      <trkpt lat="44.491" lon="1.55776">
        <ele>156</ele>
      </trkpt>
      <trkpt lat="44.4913" lon="1.55776">
        <ele>160.2</ele>
      </trkpt>
      <trkpt lat="44.49176" lon="1.55772">
        <ele>165.7</ele>
      </trkpt>
      <trkpt lat="44.49225" lon="1.55754">
        <ele>170.5</ele>
      </trkpt>
      <trkpt lat="44.4927" lon="1.55736">
        <ele>174.7</ele>
      </trkpt>
      <trkpt lat="44.49318" lon="1.55718">
        <ele>180.4</ele>
      </trkpt>
      <trkpt lat="44.49354" lon="1.55705">
        <ele>185.4</ele>
      </trkpt>
      <trkpt lat="44.49408" lon="1.55655">
        <ele>185.1</ele>
      </trkpt>
      <trkpt lat="44.49427" lon="1.55609">
        <ele>176.9</ele>
      </trkpt>
      <trkpt lat="44.49438" lon="1.55577">
        <ele>169.7</ele>
      </trkpt>
      <trkpt lat="44.49478" lon="1.55517">
        <ele>162</ele>
      </trkpt>
      <trkpt lat="44.49529" lon="1.5546">
        <ele>151.8</ele>
      </trkpt>
      <trkpt lat="44.49569" lon="1.55407">
        <ele>142.8</ele>
      </trkpt>
      <trkpt lat="44.49583" lon="1.55407">
        <ele>141.5</ele>
      </trkpt>
      <trkpt lat="44.49589" lon="1.5544">
        <ele>143.1</ele>
      </trkpt>
      <trkpt lat="44.49605" lon="1.55483">
        <ele>146.2</ele>
      </trkpt>
      <trkpt lat="44.49627" lon="1.55512">
        <ele>147.2</ele>
      </trkpt>
      <trkpt lat="44.49668" lon="1.55556">
        <ele>144.5</ele>
      </trkpt>
      <trkpt lat="44.49696" lon="1.55572">
        <ele>146.5</ele>
      </trkpt>
      <trkpt lat="44.49706" lon="1.55604">
        <ele>145.7</ele>
      </trkpt>
      <trkpt lat="44.49703" lon="1.55634">
        <ele>144.7</ele>
      </trkpt>
      <trkpt lat="44.49709" lon="1.5567">
        <ele>143.5</ele>
      </trkpt>
      <trkpt lat="44.49727" lon="1.55726">
        <ele>143.6</ele>
      </trkpt>
      <trkpt lat="44.49753" lon="1.55796">
        <ele>144.2</ele>
      </trkpt>
      <trkpt lat="44.49778" lon="1.55842">
        <ele>147</ele>
      </trkpt>
      <trkpt lat="44.49809" lon="1.55875">
        <ele>151.5</ele>
      </trkpt>
      <trkpt lat="44.49843" lon="1.55886">
        <ele>154.1</ele>
      </trkpt>
      <trkpt lat="44.49885" lon="1.55904">
        <ele>162.8</ele>
      </trkpt>
      <trkpt lat="44.49928" lon="1.55896">
        <ele>167</ele>
      </trkpt>
      <trkpt lat="44.49973" lon="1.55878">
        <ele>170.7</ele>
      </trkpt>
      <trkpt lat="44.50022" lon="1.55832">
        <ele>177.1</ele>
      </trkpt>
      <trkpt lat="44.50068" lon="1.55763">
        <ele>179.4</ele>
      </trkpt>
      <trkpt lat="44.50102" lon="1.55688">
        <ele>163</ele>
      </trkpt>
      <trkpt lat="44.50122" lon="1.55652">
        <ele>154.2</ele>
      </trkpt>
      <trkpt lat="44.50143" lon="1.55636">
        <ele>151.9</ele>
      </trkpt>
      <trkpt lat="44.5017" lon="1.55632">
        <ele>150.9</ele>
      </trkpt>
      <trkpt lat="44.50198" lon="1.55635">
        <ele>150.9</ele>
      </trkpt>
      <trkpt lat="44.50239" lon="1.55681">
        <ele>155.8</ele>
      </trkpt>
      <trkpt lat="44.50252" lon="1.55686">
        <ele>154.5</ele>
        <time>2026-04-26T14:30:20Z</time>
      </trkpt>
      <trkpt lat="44.50251" lon="1.55686">
        <ele>154.6</ele>
        <time>2026-04-26T14:30:21Z</time>
      </trkpt>
      <trkpt lat="44.50251" lon="1.55686">
        <ele>154.7</ele>
        <time>2026-04-26T14:30:23Z</time>
      </trkpt>
      <trkpt lat="44.50251" lon="1.55686">
        <ele>154.8</ele>
        <time>2026-04-26T14:30:24Z</time>
      </trkpt>
      <trkpt lat="44.50254" lon="1.55687">
        <ele>154.8</ele>
        <time>2026-04-26T14:30:27Z</time>
      </trkpt>
      <trkpt lat="44.50255" lon="1.55687">
        <ele>154.8</ele>
        <time>2026-04-26T14:30:28Z</time>
      </trkpt>
      <trkpt lat="44.50264" lon="1.55688">
        <ele>154.8</ele>
        <time>2026-04-26T14:30:34Z</time>
      </trkpt>
      <trkpt lat="44.50274" lon="1.55689">
        <ele>154.8</ele>
        <time>2026-04-26T14:30:43Z</time>
      </trkpt>
      <trkpt lat="44.50284" lon="1.55689">
        <ele>154.7</ele>
        <time>2026-04-26T14:30:51Z</time>
      </trkpt>
      <trkpt lat="44.50293" lon="1.55689">
        <ele>154.6</ele>
        <time>2026-04-26T14:30:59Z</time>
      </trkpt>
      <trkpt lat="44.50303" lon="1.5569">
        <ele>154.5</ele>
        <time>2026-04-26T14:31:08Z</time>
      </trkpt>
      <trkpt lat="44.50312" lon="1.55689">
        <ele>154.4</ele>
        <time>2026-04-26T14:31:16Z</time>
      </trkpt>
      <trkpt lat="44.50322" lon="1.55689">
        <ele>154.4</ele>
        <time>2026-04-26T14:31:24Z</time>
      </trkpt>
      <trkpt lat="44.50331" lon="1.55688">
        <ele>154.4</ele>
        <time>2026-04-26T14:31:32Z</time>
      </trkpt>
      <trkpt lat="44.50341" lon="1.55687">
        <ele>154.4</ele>
        <time>2026-04-26T14:31:40Z</time>
      </trkpt>
      <trkpt lat="44.50351" lon="1.55688">
        <ele>154.4</ele>
        <time>2026-04-26T14:31:52Z</time>
      </trkpt>
      <trkpt lat="44.5036" lon="1.55683">
        <ele>154.3</ele>
        <time>2026-04-26T14:32:01Z</time>
      </trkpt>
      <trkpt lat="44.50368" lon="1.55675">
        <ele>154.3</ele>
        <time>2026-04-26T14:32:09Z</time>
      </trkpt>
      <trkpt lat="44.50376" lon="1.55669">
        <ele>154.3</ele>
        <time>2026-04-26T14:32:18Z</time>
      </trkpt>
      <trkpt lat="44.50385" lon="1.55665">
        <ele>154.2</ele>
        <time>2026-04-26T14:32:26Z</time>
      </trkpt>
      <trkpt lat="44.50395" lon="1.55661">
        <ele>154.1</ele>
        <time>2026-04-26T14:32:35Z</time>
      </trkpt>
      <trkpt lat="44.50404" lon="1.55655">
        <ele>154.1</ele>
        <time>2026-04-26T14:32:44Z</time>
      </trkpt>
      <trkpt lat="44.50414" lon="1.5565">
        <ele>154.2</ele>
        <time>2026-04-26T14:32:51Z</time>
      </trkpt>
      <trkpt lat="44.50423" lon="1.55647">
        <ele>154.3</ele>
        <time>2026-04-26T14:33:00Z</time>
      </trkpt>
      <trkpt lat="44.50431" lon="1.55641">
        <ele>154.4</ele>
        <time>2026-04-26T14:33:10Z</time>
      </trkpt>
      <trkpt lat="44.5044" lon="1.55635">
        <ele>154.8</ele>
        <time>2026-04-26T14:33:19Z</time>
      </trkpt>
      <trkpt lat="44.50448" lon="1.55629">
        <ele>155.2</ele>
        <time>2026-04-26T14:33:27Z</time>
      </trkpt>
      <trkpt lat="44.50455" lon="1.5562">
        <ele>155.4</ele>
        <time>2026-04-26T14:33:35Z</time>
      </trkpt>
      <trkpt lat="44.50462" lon="1.55611">
        <ele>155.6</ele>
        <time>2026-04-26T14:33:43Z</time>
      </trkpt>
      <trkpt lat="44.50469" lon="1.55602">
        <ele>155.6</ele>
        <time>2026-04-26T14:33:52Z</time>
      </trkpt>
      <trkpt lat="44.50476" lon="1.55592">
        <ele>155.7</ele>
        <time>2026-04-26T14:34:03Z</time>
      </trkpt>
      <trkpt lat="44.50483" lon="1.55583">
        <ele>155.6</ele>
        <time>2026-04-26T14:34:10Z</time>
      </trkpt>
      <trkpt lat="44.5049" lon="1.55571">
        <ele>155.4</ele>
        <time>2026-04-26T14:34:20Z</time>
      </trkpt>
      <trkpt lat="44.50497" lon="1.55562">
        <ele>155.2</ele>
        <time>2026-04-26T14:34:31Z</time>
      </trkpt>
      <trkpt lat="44.50501" lon="1.5555">
        <ele>155.1</ele>
        <time>2026-04-26T14:34:37Z</time>
      </trkpt>
      <trkpt lat="44.50505" lon="1.55539">
        <ele>155</ele>
        <time>2026-04-26T14:34:48Z</time>
      </trkpt>
      <trkpt lat="44.5051" lon="1.55527">
        <ele>155</ele>
        <time>2026-04-26T14:34:53Z</time>
      </trkpt>
      <trkpt lat="44.50515" lon="1.55515">
        <ele>155</ele>
        <time>2026-04-26T14:35:01Z</time>
      </trkpt>
      <trkpt lat="44.50521" lon="1.55505">
        <ele>155</ele>
        <time>2026-04-26T14:35:10Z</time>
      </trkpt>
      <trkpt lat="44.50528" lon="1.55497">
        <ele>155.1</ele>
        <time>2026-04-26T14:35:18Z</time>
      </trkpt>
      <trkpt lat="44.50539" lon="1.55492">
        <ele>155.1</ele>
        <time>2026-04-26T14:35:26Z</time>
      </trkpt>
      <trkpt lat="44.50548" lon="1.55489">
        <ele>155.2</ele>
        <time>2026-04-26T14:35:35Z</time>
      </trkpt>
      <trkpt lat="44.50556" lon="1.55485">
        <ele>155.2</ele>
        <time>2026-04-26T14:35:43Z</time>
      </trkpt>
      <trkpt lat="44.50566" lon="1.55485">
        <ele>155.3</ele>
        <time>2026-04-26T14:35:53Z</time>
      </trkpt>
      <trkpt lat="44.50577" lon="1.55487">
        <ele>155.3</ele>
        <time>2026-04-26T14:36:04Z</time>
      </trkpt>
      <trkpt lat="44.50588" lon="1.55488">
        <ele>155.3</ele>
        <time>2026-04-26T14:36:12Z</time>
      </trkpt>
      <trkpt lat="44.50598" lon="1.5549">
        <ele>155.4</ele>
        <time>2026-04-26T14:36:20Z</time>
      </trkpt>
      <trkpt lat="44.50606" lon="1.55486">
        <ele>155.5</ele>
        <time>2026-04-26T14:36:26Z</time>
      </trkpt>
      <trkpt lat="44.50615" lon="1.55492">
        <ele>155.5</ele>
        <time>2026-04-26T14:36:33Z</time>
      </trkpt>
      <trkpt lat="44.50624" lon="1.55496">
        <ele>155.5</ele>
        <time>2026-04-26T14:36:43Z</time>
      </trkpt>
      <trkpt lat="44.50632" lon="1.55501">
        <ele>155.6</ele>
        <time>2026-04-26T14:36:49Z</time>
      </trkpt>
      <trkpt lat="44.5064" lon="1.55508">
        <ele>155.6</ele>
        <time>2026-04-26T14:36:59Z</time>
      </trkpt>
      <trkpt lat="44.50648" lon="1.55513">
        <ele>155.6</ele>
        <time>2026-04-26T14:37:07Z</time>
      </trkpt>
      <trkpt lat="44.50657" lon="1.55516">
        <ele>155.7</ele>
        <time>2026-04-26T14:37:13Z</time>
      </trkpt>
      <trkpt lat="44.50666" lon="1.5552">
        <ele>155.7</ele>
        <time>2026-04-26T14:37:17Z</time>
      </trkpt>
      <trkpt lat="44.50675" lon="1.55526">
        <ele>155.8</ele>
        <time>2026-04-26T14:37:28Z</time>
      </trkpt>
      <trkpt lat="44.50681" lon="1.55535">
        <ele>155.8</ele>
        <time>2026-04-26T14:37:35Z</time>
      </trkpt>
      <trkpt lat="44.50688" lon="1.55544">
        <ele>156</ele>
        <time>2026-04-26T14:37:43Z</time>
      </trkpt>
      <trkpt lat="44.50692" lon="1.55556">
        <ele>156.6</ele>
        <time>2026-04-26T14:37:52Z</time>
      </trkpt>
      <trkpt lat="44.50694" lon="1.55557">
        <ele>157.7</ele>
        <time>2026-04-26T14:38:02Z</time>
      </trkpt>
      <trkpt lat="44.50694" lon="1.55557">
        <ele>157.8</ele>
        <time>2026-04-26T14:38:03Z</time>
      </trkpt>
      <trkpt lat="44.50694" lon="1.55558">
        <ele>157.8</ele>
        <time>2026-04-26T14:38:04Z</time>
      </trkpt>
      <trkpt lat="44.50701" lon="1.55568">
        <ele>158</ele>
        <time>2026-04-26T14:38:15Z</time>
      </trkpt>
      <trkpt lat="44.50708" lon="1.55577">
        <ele>158</ele>
        <time>2026-04-26T14:38:27Z</time>
      </trkpt>
      <trkpt lat="44.50714" lon="1.55587">
        <ele>158</ele>
        <time>2026-04-26T14:38:36Z</time>
      </trkpt>
      <trkpt lat="44.50719" lon="1.55598">
        <ele>157.9</ele>
        <time>2026-04-26T14:38:43Z</time>
      </trkpt>
      <trkpt lat="44.50726" lon="1.55609">
        <ele>157.7</ele>
        <time>2026-04-26T14:38:52Z</time>
      </trkpt>
      <trkpt lat="44.50734" lon="1.55616">
        <ele>157.4</ele>
        <time>2026-04-26T14:39:00Z</time>
      </trkpt>
      <trkpt lat="44.50741" lon="1.55626">
        <ele>157.1</ele>
        <time>2026-04-26T14:39:08Z</time>
      </trkpt>
      <trkpt lat="44.50747" lon="1.55635">
        <ele>157.1</ele>
        <time>2026-04-26T14:39:15Z</time>
      </trkpt>
      <trkpt lat="44.5075" lon="1.55649">
        <ele>157.1</ele>
        <time>2026-04-26T14:39:25Z</time>
      </trkpt>
      <trkpt lat="44.50756" lon="1.55659">
        <ele>157.1</ele>
        <time>2026-04-26T14:39:35Z</time>
      </trkpt>
      <trkpt lat="44.50764" lon="1.55666">
        <ele>157</ele>
        <time>2026-04-26T14:39:43Z</time>
      </trkpt>
      <trkpt lat="44.5077" lon="1.55676">
        <ele>156.9</ele>
        <time>2026-04-26T14:39:51Z</time>
      </trkpt>
      <trkpt lat="44.50779" lon="1.55681">
        <ele>156.7</ele>
        <time>2026-04-26T14:39:59Z</time>
      </trkpt>
      <trkpt lat="44.50788" lon="1.55685">
        <ele>156.4</ele>
        <time>2026-04-26T14:40:04Z</time>
      </trkpt>
      <trkpt lat="44.50796" lon="1.55691">
        <ele>156.2</ele>
        <time>2026-04-26T14:40:12Z</time>
      </trkpt>
      <trkpt lat="44.50803" lon="1.557">
        <ele>156.4</ele>
        <time>2026-04-26T14:40:22Z</time>
      </trkpt>
      <trkpt lat="44.50812" lon="1.55704">
        <ele>156.5</ele>
        <time>2026-04-26T14:40:29Z</time>
      </trkpt>
      <trkpt lat="44.50821" lon="1.55711">
        <ele>156.7</ele>
        <time>2026-04-26T14:40:39Z</time>
      </trkpt>
      <trkpt lat="44.5083" lon="1.55715">
        <ele>156.8</ele>
        <time>2026-04-26T14:40:48Z</time>
      </trkpt>
      <trkpt lat="44.50839" lon="1.55721">
        <ele>156.9</ele>
        <time>2026-04-26T14:40:58Z</time>
      </trkpt>
      <trkpt lat="44.50847" lon="1.55727">
        <ele>157.1</ele>
        <time>2026-04-26T14:41:12Z</time>
      </trkpt>
      <trkpt lat="44.50849" lon="1.5574">
        <ele>157.1</ele>
        <time>2026-04-26T14:41:23Z</time>
      </trkpt>
      <trkpt lat="44.50859" lon="1.55743">
        <ele>157</ele>
        <time>2026-04-26T14:41:28Z</time>
      </trkpt>
      <trkpt lat="44.50868" lon="1.55746">
        <ele>157</ele>
        <time>2026-04-26T14:41:34Z</time>
      </trkpt>
      <trkpt lat="44.50877" lon="1.5575">
        <ele>157.1</ele>
        <time>2026-04-26T14:41:41Z</time>
      </trkpt>
      <trkpt lat="44.50886" lon="1.55753">
        <ele>157.2</ele>
        <time>2026-04-26T14:41:49Z</time>
      </trkpt>
      <trkpt lat="44.50895" lon="1.55756">
        <ele>157.4</ele>
        <time>2026-04-26T14:41:56Z</time>
      </trkpt>
      <trkpt lat="44.50905" lon="1.55759">
        <ele>157.8</ele>
        <time>2026-04-26T14:42:06Z</time>
      </trkpt>
      <trkpt lat="44.50914" lon="1.55761">
        <ele>158.2</ele>
        <time>2026-04-26T14:42:15Z</time>
      </trkpt>
      <trkpt lat="44.50924" lon="1.55763">
        <ele>158.6</ele>
        <time>2026-04-26T14:42:23Z</time>
      </trkpt>
      <trkpt lat="44.50933" lon="1.55765">
        <ele>159.2</ele>
        <time>2026-04-26T14:42:32Z</time>
      </trkpt>
      <trkpt lat="44.50943" lon="1.55767">
        <ele>159.4</ele>
        <time>2026-04-26T14:42:41Z</time>
      </trkpt>
      <trkpt lat="44.50954" lon="1.55769">
        <ele>159.4</ele>
        <time>2026-04-26T14:42:50Z</time>
      </trkpt>
      <trkpt lat="44.50963" lon="1.55771">
        <ele>159.4</ele>
        <time>2026-04-26T14:42:58Z</time>
      </trkpt>
      <trkpt lat="44.50972" lon="1.55771">
        <ele>159.3</ele>
        <time>2026-04-26T14:43:04Z</time>
      </trkpt>
      <trkpt lat="44.50981" lon="1.55772">
        <ele>159.3</ele>
        <time>2026-04-26T14:43:14Z</time>
      </trkpt>
      <trkpt lat="44.50991" lon="1.55773">
        <ele>159.3</ele>
        <time>2026-04-26T14:43:25Z</time>
      </trkpt>
      <trkpt lat="44.51" lon="1.55775">
        <ele>159.6</ele>
        <time>2026-04-26T14:43:34Z</time>
      </trkpt>
      <trkpt lat="44.51002" lon="1.55778">
        <ele>160</ele>
        <time>2026-04-26T14:43:40Z</time>
      </trkpt>
      <trkpt lat="44.51004" lon="1.55779">
        <ele>160.1</ele>
        <time>2026-04-26T14:43:44Z</time>
      </trkpt>
      <trkpt lat="44.51013" lon="1.5578">
        <ele>160.5</ele>
        <time>2026-04-26T14:43:55Z</time>
      </trkpt>
      <trkpt lat="44.51023" lon="1.55781">
        <ele>160.7</ele>
        <time>2026-04-26T14:44:01Z</time>
      </trkpt>
      <trkpt lat="44.51033" lon="1.55781">
        <ele>161</ele>
        <time>2026-04-26T14:44:10Z</time>
      </trkpt>
      <trkpt lat="44.51043" lon="1.55782">
        <ele>161</ele>
        <time>2026-04-26T14:44:19Z</time>
      </trkpt>
      <trkpt lat="44.51052" lon="1.55784">
        <ele>160.9</ele>
        <time>2026-04-26T14:44:26Z</time>
      </trkpt>
      <trkpt lat="44.51064" lon="1.55782">
        <ele>160.7</ele>
        <time>2026-04-26T14:44:37Z</time>
      </trkpt>
      <trkpt lat="44.51073" lon="1.55779">
        <ele>160.3</ele>
        <time>2026-04-26T14:44:45Z</time>
      </trkpt>
      <trkpt lat="44.51082" lon="1.55779">
        <ele>159.9</ele>
        <time>2026-04-26T14:44:55Z</time>
      </trkpt>
      <trkpt lat="44.51091" lon="1.55774">
        <ele>159.8</ele>
        <time>2026-04-26T14:45:01Z</time>
      </trkpt>
      <trkpt lat="44.511" lon="1.55773">
        <ele>159.7</ele>
        <time>2026-04-26T14:45:09Z</time>
      </trkpt>
      <trkpt lat="44.5111" lon="1.55771">
        <ele>159.6</ele>
        <time>2026-04-26T14:45:18Z</time>
      </trkpt>
      <trkpt lat="44.5112" lon="1.5577">
        <ele>159.5</ele>
        <time>2026-04-26T14:45:27Z</time>
      </trkpt>
      <trkpt lat="44.5113" lon="1.55769">
        <ele>159.4</ele>
        <time>2026-04-26T14:45:36Z</time>
      </trkpt>
      <trkpt lat="44.51139" lon="1.55765">
        <ele>159.5</ele>
        <time>2026-04-26T14:45:48Z</time>
      </trkpt>
      <trkpt lat="44.51149" lon="1.55767">
        <ele>159.5</ele>
        <time>2026-04-26T14:45:57Z</time>
      </trkpt>
      <trkpt lat="44.51158" lon="1.55767">
        <ele>159.5</ele>
        <time>2026-04-26T14:46:04Z</time>
      </trkpt>
      <trkpt lat="44.51167" lon="1.55767">
        <ele>159.6</ele>
        <time>2026-04-26T14:46:13Z</time>
      </trkpt>
      <trkpt lat="44.51176" lon="1.55765">
        <ele>159.8</ele>
        <time>2026-04-26T14:46:22Z</time>
      </trkpt>
      <trkpt lat="44.51186" lon="1.55763">
        <ele>160.4</ele>
        <time>2026-04-26T14:46:31Z</time>
      </trkpt>
      <trkpt lat="44.51197" lon="1.55761">
        <ele>160.7</ele>
        <time>2026-04-26T14:46:42Z</time>
      </trkpt>
      <trkpt lat="44.51207" lon="1.55761">
        <ele>160.7</ele>
        <time>2026-04-26T14:46:53Z</time>
      </trkpt>
      <trkpt lat="44.51216" lon="1.55761">
        <ele>160.4</ele>
        <time>2026-04-26T14:47:04Z</time>
      </trkpt>
      <trkpt lat="44.51227" lon="1.55756">
        <ele>160.2</ele>
        <time>2026-04-26T14:47:14Z</time>
      </trkpt>
      <trkpt lat="44.51236" lon="1.55752">
        <ele>160.2</ele>
        <time>2026-04-26T14:47:19Z</time>
      </trkpt>
      <trkpt lat="44.51246" lon="1.5575">
        <ele>160.3</ele>
        <time>2026-04-26T14:47:27Z</time>
      </trkpt>
      <trkpt lat="44.51255" lon="1.5575">
        <ele>160.4</ele>
        <time>2026-04-26T14:47:36Z</time>
      </trkpt>
      <trkpt lat="44.51264" lon="1.55748">
        <ele>160.4</ele>
        <time>2026-04-26T14:47:44Z</time>
      </trkpt>
      <trkpt lat="44.51273" lon="1.55746">
        <ele>160.4</ele>
        <time>2026-04-26T14:47:52Z</time>
      </trkpt>
      <trkpt lat="44.51282" lon="1.55748">
        <ele>160.4</ele>
        <time>2026-04-26T14:48:03Z</time>
      </trkpt>
      <trkpt lat="44.51291" lon="1.55746">
        <ele>160.3</ele>
        <time>2026-04-26T14:48:09Z</time>
      </trkpt>
      <trkpt lat="44.51301" lon="1.55746">
        <ele>160.3</ele>
        <time>2026-04-26T14:48:18Z</time>
      </trkpt>
      <trkpt lat="44.51311" lon="1.55746">
        <ele>160.4</ele>
        <time>2026-04-26T14:48:26Z</time>
      </trkpt>
      <trkpt lat="44.51321" lon="1.55749">
        <ele>160.6</ele>
        <time>2026-04-26T14:48:36Z</time>
      </trkpt>
      <trkpt lat="44.51331" lon="1.5575">
        <ele>160.8</ele>
        <time>2026-04-26T14:48:46Z</time>
      </trkpt>
      <trkpt lat="44.51341" lon="1.55751">
        <ele>160.8</ele>
        <time>2026-04-26T14:48:54Z</time>
      </trkpt>
      <trkpt lat="44.51351" lon="1.55751">
        <ele>160.8</ele>
        <time>2026-04-26T14:49:02Z</time>
      </trkpt>
      <trkpt lat="44.51361" lon="1.55754">
        <ele>160.8</ele>
        <time>2026-04-26T14:49:08Z</time>
      </trkpt>
      <trkpt lat="44.51371" lon="1.55755">
        <ele>160.7</ele>
        <time>2026-04-26T14:49:17Z</time>
      </trkpt>
      <trkpt lat="44.5138" lon="1.55755">
        <ele>160.7</ele>
        <time>2026-04-26T14:49:23Z</time>
      </trkpt>
      <trkpt lat="44.5139" lon="1.55756">
        <ele>160.4</ele>
        <time>2026-04-26T14:49:32Z</time>
      </trkpt>
      <trkpt lat="44.514" lon="1.55762">
        <ele>160.3</ele>
        <time>2026-04-26T14:49:41Z</time>
      </trkpt>
      <trkpt lat="44.51407" lon="1.5577">
        <ele>160.2</ele>
        <time>2026-04-26T14:49:50Z</time>
      </trkpt>
      <trkpt lat="44.51411" lon="1.55782">
        <ele>160.2</ele>
        <time>2026-04-26T14:49:55Z</time>
      </trkpt>
      <trkpt lat="44.51413" lon="1.55795">
        <ele>160.3</ele>
        <time>2026-04-26T14:50:05Z</time>
      </trkpt>
      <trkpt lat="44.51411" lon="1.55809">
        <ele>160.5</ele>
        <time>2026-04-26T14:50:15Z</time>
      </trkpt>
      <trkpt lat="44.51412" lon="1.55822">
        <ele>160.7</ele>
        <time>2026-04-26T14:50:25Z</time>
      </trkpt>
      <trkpt lat="44.5141" lon="1.55836">
        <ele>161</ele>
        <time>2026-04-26T14:50:35Z</time>
      </trkpt>
      <trkpt lat="44.51409" lon="1.55849">
        <ele>161.3</ele>
        <time>2026-04-26T14:50:44Z</time>
      </trkpt>
      <trkpt lat="44.51412" lon="1.55862">
        <ele>161.8</ele>
        <time>2026-04-26T14:50:52Z</time>
      </trkpt>
      <trkpt lat="44.51411" lon="1.55875">
        <ele>161.9</ele>
        <time>2026-04-26T14:51:02Z</time>
      </trkpt>
      <trkpt lat="44.51412" lon="1.55889">
        <ele>161.7</ele>
        <time>2026-04-26T14:51:11Z</time>
      </trkpt>
      <trkpt lat="44.51413" lon="1.55901">
        <ele>161.6</ele>
        <time>2026-04-26T14:51:19Z</time>
      </trkpt>
      <trkpt lat="44.51414" lon="1.55915">
        <ele>161.6</ele>
        <time>2026-04-26T14:51:26Z</time>
      </trkpt>
      <trkpt lat="44.51414" lon="1.55929">
        <ele>161.7</ele>
        <time>2026-04-26T14:51:36Z</time>
      </trkpt>
      <trkpt lat="44.51413" lon="1.55942">
        <ele>161.7</ele>
        <time>2026-04-26T14:51:47Z</time>
      </trkpt>
      <trkpt lat="44.51414" lon="1.55955">
        <ele>161.6</ele>
        <time>2026-04-26T14:51:59Z</time>
      </trkpt>
      <trkpt lat="44.51417" lon="1.55969">
        <ele>161.5</ele>
        <time>2026-04-26T14:52:08Z</time>
      </trkpt>
      <trkpt lat="44.5142" lon="1.55982">
        <ele>161.5</ele>
        <time>2026-04-26T14:52:16Z</time>
      </trkpt>
      <trkpt lat="44.51422" lon="1.55994">
        <ele>161.5</ele>
        <time>2026-04-26T14:52:24Z</time>
      </trkpt>
      <trkpt lat="44.51425" lon="1.56008">
        <ele>161.5</ele>
        <time>2026-04-26T14:52:37Z</time>
      </trkpt>
      <trkpt lat="44.5143" lon="1.56019">
        <ele>161.7</ele>
        <time>2026-04-26T14:52:47Z</time>
      </trkpt>
      <trkpt lat="44.51433" lon="1.56031">
        <ele>162</ele>
        <time>2026-04-26T14:53:00Z</time>
      </trkpt>
      <trkpt lat="44.51437" lon="1.56043">
        <ele>162.2</ele>
        <time>2026-04-26T14:53:07Z</time>
      </trkpt>
      <trkpt lat="44.51441" lon="1.56056">
        <ele>162.4</ele>
        <time>2026-04-26T14:53:16Z</time>
      </trkpt>
      <trkpt lat="44.5144" lon="1.56068">
        <ele>163.1</ele>
        <time>2026-04-26T14:53:36Z</time>
      </trkpt>
      <trkpt lat="44.51441" lon="1.56069">
        <ele>163.1</ele>
        <time>2026-04-26T14:53:37Z</time>
      </trkpt>
      <trkpt lat="44.51443" lon="1.56082">
        <ele>163.2</ele>
        <time>2026-04-26T14:53:48Z</time>
      </trkpt>
      <trkpt lat="44.51446" lon="1.56095">
        <ele>163.4</ele>
        <time>2026-04-26T14:53:58Z</time>
      </trkpt>
      <trkpt lat="44.51446" lon="1.56109">
        <ele>163.8</ele>
        <time>2026-04-26T14:54:08Z</time>
      </trkpt>
      <trkpt lat="44.51445" lon="1.56123">
        <ele>164.1</ele>
        <time>2026-04-26T14:54:17Z</time>
      </trkpt>
      <trkpt lat="44.51446" lon="1.56137">
        <ele>164.5</ele>
        <time>2026-04-26T14:54:26Z</time>
      </trkpt>
      <trkpt lat="44.51444" lon="1.5615">
        <ele>164.7</ele>
        <time>2026-04-26T14:54:35Z</time>
      </trkpt>
      <trkpt lat="44.51443" lon="1.56163">
        <ele>164.9</ele>
        <time>2026-04-26T14:54:43Z</time>
      </trkpt>
      <trkpt lat="44.51441" lon="1.56176">
        <ele>165.4</ele>
        <time>2026-04-26T14:54:52Z</time>
      </trkpt>
      <trkpt lat="44.51438" lon="1.5619">
        <ele>166.6</ele>
        <time>2026-04-26T14:55:03Z</time>
      </trkpt>
      <trkpt lat="44.51437" lon="1.56203">
        <ele>167.8</ele>
        <time>2026-04-26T14:55:14Z</time>
      </trkpt>
      <trkpt lat="44.51434" lon="1.56217">
        <ele>168</ele>
        <time>2026-04-26T14:55:26Z</time>
      </trkpt>
      <trkpt lat="44.5143" lon="1.56229">
        <ele>167.9</ele>
        <time>2026-04-26T14:55:35Z</time>
      </trkpt>
      <trkpt lat="44.51423" lon="1.56237">
        <ele>167.9</ele>
        <time>2026-04-26T14:55:43Z</time>
      </trkpt>
      <trkpt lat="44.51418" lon="1.56248">
        <ele>168</ele>
        <time>2026-04-26T14:55:52Z</time>
      </trkpt>
      <trkpt lat="44.51414" lon="1.56259">
        <ele>168.1</ele>
        <time>2026-04-26T14:55:59Z</time>
      </trkpt>
      <trkpt lat="44.5141" lon="1.56271">
        <ele>168.4</ele>
        <time>2026-04-26T14:56:07Z</time>
      </trkpt>
      <trkpt lat="44.51412" lon="1.56284">
        <ele>169.3</ele>
        <time>2026-04-26T14:56:17Z</time>
      </trkpt>
      <trkpt lat="44.51413" lon="1.56285">
        <ele>169.8</ele>
        <time>2026-04-26T14:56:22Z</time>
      </trkpt>
      <trkpt lat="44.51413" lon="1.56285">
        <ele>169.9</ele>
        <time>2026-04-26T14:56:23Z</time>
      </trkpt>
      <trkpt lat="44.51412" lon="1.56289">
        <ele>170.2</ele>
        <time>2026-04-26T14:56:27Z</time>
      </trkpt>
      <trkpt lat="44.51411" lon="1.5629">
        <ele>170.3</ele>
        <time>2026-04-26T14:56:28Z</time>
      </trkpt>
      <trkpt lat="44.51404" lon="1.563">
        <ele>170.5</ele>
        <time>2026-04-26T14:56:38Z</time>
      </trkpt>
      <trkpt lat="44.51397" lon="1.56308">
        <ele>170.9</ele>
        <time>2026-04-26T14:56:47Z</time>
      </trkpt>
      <trkpt lat="44.5139" lon="1.56318">
        <ele>171.5</ele>
        <time>2026-04-26T14:56:58Z</time>
      </trkpt>
      <trkpt lat="44.51382" lon="1.56324">
        <ele>171.6</ele>
        <time>2026-04-26T14:57:10Z</time>
      </trkpt>
      <trkpt lat="44.51381" lon="1.56337">
        <ele>171.6</ele>
        <time>2026-04-26T14:57:18Z</time>
      </trkpt>
      <trkpt lat="44.51377" lon="1.56348">
        <ele>171.7</ele>
        <time>2026-04-26T14:57:25Z</time>
      </trkpt>
      <trkpt lat="44.5137" lon="1.56358">
        <ele>172.1</ele>
        <time>2026-04-26T14:57:35Z</time>
      </trkpt>
      <trkpt lat="44.5136" lon="1.56362">
        <ele>172.5</ele>
        <time>2026-04-26T14:57:43Z</time>
      </trkpt>
      <trkpt lat="44.51351" lon="1.56364">
        <ele>172.8</ele>
        <time>2026-04-26T14:57:52Z</time>
      </trkpt>
      <trkpt lat="44.51341" lon="1.56368">
        <ele>173.5</ele>
        <time>2026-04-26T14:58:01Z</time>
      </trkpt>
      <trkpt lat="44.5134" lon="1.56368">
        <ele>174.1</ele>
        <time>2026-04-26T14:58:07Z</time>
      </trkpt>
      <trkpt lat="44.5134" lon="1.56368">
        <ele>174.2</ele>
        <time>2026-04-26T14:58:08Z</time>
      </trkpt>
      <trkpt lat="44.51341" lon="1.56368">
        <ele>174.3</ele>
        <time>2026-04-26T14:58:09Z</time>
      </trkpt>
      <trkpt lat="44.5135" lon="1.56366">
        <ele>174.1</ele>
        <time>2026-04-26T14:58:25Z</time>
      </trkpt>
      <trkpt lat="44.5136" lon="1.56361">
        <ele>173.5</ele>
        <time>2026-04-26T14:58:35Z</time>
      </trkpt>
      <trkpt lat="44.51369" lon="1.56357">
        <ele>173</ele>
        <time>2026-04-26T14:58:45Z</time>
      </trkpt>
      <trkpt lat="44.51375" lon="1.56347">
        <ele>172.5</ele>
        <time>2026-04-26T14:58:54Z</time>
      </trkpt>
      <trkpt lat="44.51382" lon="1.56338">
        <ele>172.2</ele>
        <time>2026-04-26T14:59:02Z</time>
      </trkpt>
      <trkpt lat="44.51388" lon="1.56327">
        <ele>172</ele>
        <time>2026-04-26T14:59:11Z</time>
      </trkpt>
      <trkpt lat="44.51394" lon="1.56318">
        <ele>172.1</ele>
        <time>2026-04-26T14:59:20Z</time>
      </trkpt>
      <trkpt lat="44.514" lon="1.56307">
        <ele>172</ele>
        <time>2026-04-26T14:59:30Z</time>
      </trkpt>
      <trkpt lat="44.51405" lon="1.56296">
        <ele>171.7</ele>
        <time>2026-04-26T14:59:39Z</time>
      </trkpt>
      <trkpt lat="44.51414" lon="1.56296">
        <ele>171.3</ele>
        <time>2026-04-26T14:59:53Z</time>
      </trkpt>
      <trkpt lat="44.51421" lon="1.56305">
        <ele>171.7</ele>
        <time>2026-04-26T15:00:03Z</time>
      </trkpt>
      <trkpt lat="44.51427" lon="1.56315">
        <ele>173.1</ele>
        <time>2026-04-26T15:00:15Z</time>
      </trkpt>
      <trkpt lat="44.51432" lon="1.56327">
        <ele>175.3</ele>
        <time>2026-04-26T15:00:28Z</time>
      </trkpt>
      <trkpt lat="44.51438" lon="1.56338">
        <ele>176.9</ele>
        <time>2026-04-26T15:00:41Z</time>
      </trkpt>
      <trkpt lat="44.51445" lon="1.56347">
        <ele>179.3</ele>
        <time>2026-04-26T15:00:56Z</time>
      </trkpt>
      <trkpt lat="44.51451" lon="1.56358">
        <ele>180.5</ele>
        <time>2026-04-26T15:01:08Z</time>
      </trkpt>
      <trkpt lat="44.51456" lon="1.56368">
        <ele>182.1</ele>
        <time>2026-04-26T15:01:25Z</time>
      </trkpt>
      <trkpt lat="44.51461" lon="1.56381">
        <ele>182.3</ele>
        <time>2026-04-26T15:01:33Z</time>
      </trkpt>
      <trkpt lat="44.51458" lon="1.56394">
        <ele>182.7</ele>
        <time>2026-04-26T15:01:40Z</time>
      </trkpt>
      <trkpt lat="44.51459" lon="1.56407">
        <ele>183.4</ele>
        <time>2026-04-26T15:01:51Z</time>
      </trkpt>
      <trkpt lat="44.51462" lon="1.56419">
        <ele>187.5</ele>
        <time>2026-04-26T15:02:11Z</time>
      </trkpt>
      <trkpt lat="44.51467" lon="1.56431">
        <ele>187.2</ele>
        <time>2026-04-26T15:02:22Z</time>
      </trkpt>
      <trkpt lat="44.51467" lon="1.56444">
        <ele>188.1</ele>
        <time>2026-04-26T15:02:34Z</time>
      </trkpt>
      <trkpt lat="44.51469" lon="1.56456">
        <ele>189</ele>
        <time>2026-04-26T15:02:43Z</time>
      </trkpt>
      <trkpt lat="44.51475" lon="1.56466">
        <ele>190.4</ele>
        <time>2026-04-26T15:02:55Z</time>
      </trkpt>
      <trkpt lat="44.51479" lon="1.56478">
        <ele>191.5</ele>
        <time>2026-04-26T15:03:04Z</time>
      </trkpt>
      <trkpt lat="44.51483" lon="1.5649">
        <ele>192.7</ele>
        <time>2026-04-26T15:03:14Z</time>
      </trkpt>
      <trkpt lat="44.51487" lon="1.56502">
        <ele>193.5</ele>
        <time>2026-04-26T15:03:21Z</time>
      </trkpt>
      <trkpt lat="44.51489" lon="1.56515">
        <ele>194.3</ele>
        <time>2026-04-26T15:03:30Z</time>
      </trkpt>
      <trkpt lat="44.5149" lon="1.56528">
        <ele>195.5</ele>
        <time>2026-04-26T15:03:46Z</time>
      </trkpt>
      <trkpt lat="44.51494" lon="1.5654">
        <ele>196.3</ele>
        <time>2026-04-26T15:03:59Z</time>
      </trkpt>
      <trkpt lat="44.51496" lon="1.56553">
        <ele>197.2</ele>
        <time>2026-04-26T15:04:08Z</time>
      </trkpt>
      <trkpt lat="44.51502" lon="1.56565">
        <ele>198.5</ele>
        <time>2026-04-26T15:04:21Z</time>
      </trkpt>
      <trkpt lat="44.51509" lon="1.56573">
        <ele>199.7</ele>
        <time>2026-04-26T15:04:32Z</time>
      </trkpt>
      <trkpt lat="44.51516" lon="1.56582">
        <ele>201.2</ele>
        <time>2026-04-26T15:04:47Z</time>
      </trkpt>
      <trkpt lat="44.51519" lon="1.56595">
        <ele>202.9</ele>
        <time>2026-04-26T15:05:03Z</time>
      </trkpt>
      <trkpt lat="44.51525" lon="1.56607">
        <ele>204</ele>
        <time>2026-04-26T15:05:14Z</time>
      </trkpt>
      <trkpt lat="44.51529" lon="1.56619">
        <ele>205</ele>
        <time>2026-04-26T15:05:26Z</time>
      </trkpt>
      <trkpt lat="44.51533" lon="1.5663">
        <ele>207.3</ele>
        <time>2026-04-26T15:05:40Z</time>
      </trkpt>
      <trkpt lat="44.51541" lon="1.56638">
        <ele>209.1</ele>
        <time>2026-04-26T15:05:53Z</time>
      </trkpt>
      <trkpt lat="44.51547" lon="1.56649">
        <ele>211</ele>
        <time>2026-04-26T15:06:09Z</time>
      </trkpt>
      <trkpt lat="44.51552" lon="1.56659">
        <ele>213.3</ele>
        <time>2026-04-26T15:06:25Z</time>
      </trkpt>
      <trkpt lat="44.5156" lon="1.56665">
        <ele>215.3</ele>
        <time>2026-04-26T15:06:39Z</time>
      </trkpt>
      <trkpt lat="44.51564" lon="1.56678">
        <ele>217.9</ele>
        <time>2026-04-26T15:07:04Z</time>
      </trkpt>
      <trkpt lat="44.51569" lon="1.56689">
        <ele>219.3</ele>
        <time>2026-04-26T15:07:16Z</time>
      </trkpt>
      <trkpt lat="44.51564" lon="1.567">
        <ele>221.5</ele>
        <time>2026-04-26T15:07:33Z</time>
      </trkpt>
      <trkpt lat="44.51555" lon="1.56699">
        <ele>221.6</ele>
        <time>2026-04-26T15:07:44Z</time>
      </trkpt>
      <trkpt lat="44.51546" lon="1.56694">
        <ele>221.6</ele>
        <time>2026-04-26T15:07:54Z</time>
      </trkpt>
      <trkpt lat="44.51537" lon="1.5669">
        <ele>222.1</ele>
        <time>2026-04-26T15:08:04Z</time>
      </trkpt>
      <trkpt lat="44.51528" lon="1.56687">
        <ele>222.6</ele>
        <time>2026-04-26T15:08:16Z</time>
      </trkpt>
      <trkpt lat="44.51519" lon="1.56684">
        <ele>224.1</ele>
        <time>2026-04-26T15:08:29Z</time>
      </trkpt>
      <trkpt lat="44.5151" lon="1.5668">
        <ele>226.1</ele>
        <time>2026-04-26T15:08:45Z</time>
      </trkpt>
      <trkpt lat="44.51502" lon="1.56676">
        <ele>227.7</ele>
        <time>2026-04-26T15:08:59Z</time>
      </trkpt>
      <trkpt lat="44.51493" lon="1.56669">
        <ele>229.8</ele>
        <time>2026-04-26T15:09:16Z</time>
      </trkpt>
      <trkpt lat="44.51485" lon="1.56664">
        <ele>231.1</ele>
        <time>2026-04-26T15:09:28Z</time>
      </trkpt>
      <trkpt lat="44.51476" lon="1.56659">
        <ele>232.9</ele>
        <time>2026-04-26T15:09:44Z</time>
      </trkpt>
      <trkpt lat="44.51467" lon="1.56652">
        <ele>234.4</ele>
        <time>2026-04-26T15:09:58Z</time>
      </trkpt>
      <trkpt lat="44.51467" lon="1.56652">
        <ele>234.8</ele>
        <time>2026-04-26T15:10:02Z</time>
      </trkpt>
      <trkpt lat="44.51466" lon="1.56651">
        <ele>234.9</ele>
        <time>2026-04-26T15:10:03Z</time>
      </trkpt>
      <trkpt lat="44.51465" lon="1.56651">
        <ele>235</ele>
        <time>2026-04-26T15:10:04Z</time>
      </trkpt>
      <trkpt lat="44.51457" lon="1.56644">
        <ele>236.1</ele>
        <time>2026-04-26T15:10:15Z</time>
      </trkpt>
      <trkpt lat="44.51448" lon="1.56638">
        <ele>237.8</ele>
        <time>2026-04-26T15:10:30Z</time>
      </trkpt>
      <trkpt lat="44.5144" lon="1.56633">
        <ele>239.2</ele>
        <time>2026-04-26T15:10:42Z</time>
      </trkpt>
      <trkpt lat="44.51433" lon="1.56624">
        <ele>241.2</ele>
        <time>2026-04-26T15:11:01Z</time>
      </trkpt>
      <trkpt lat="44.51425" lon="1.56618">
        <ele>242.4</ele>
        <time>2026-04-26T15:11:14Z</time>
      </trkpt>
      <trkpt lat="44.51418" lon="1.5661">
        <ele>243.7</ele>
        <time>2026-04-26T15:11:25Z</time>
      </trkpt>
      <trkpt lat="44.5141" lon="1.56603">
        <ele>245.1</ele>
        <time>2026-04-26T15:11:37Z</time>
      </trkpt>
      <trkpt lat="44.51402" lon="1.56596">
        <ele>247</ele>
        <time>2026-04-26T15:11:50Z</time>
      </trkpt>
      <trkpt lat="44.51394" lon="1.56591">
        <ele>249</ele>
        <time>2026-04-26T15:12:05Z</time>
      </trkpt>
      <trkpt lat="44.51385" lon="1.56585">
        <ele>250.3</ele>
        <time>2026-04-26T15:12:17Z</time>
      </trkpt>
      <trkpt lat="44.51376" lon="1.56584">
        <ele>252</ele>
        <time>2026-04-26T15:12:30Z</time>
      </trkpt>
      <trkpt lat="44.51373" lon="1.56584">
        <ele>253.7</ele>
        <time>2026-04-26T15:13:08Z</time>
      </trkpt>
      <trkpt lat="44.51373" lon="1.56584">
        <ele>254.1</ele>
        <time>2026-04-26T15:13:13Z</time>
      </trkpt>
      <trkpt lat="44.51372" lon="1.56584">
        <ele>253.9</ele>
        <time>2026-04-26T15:13:25Z</time>
      </trkpt>
      <trkpt lat="44.51371" lon="1.56585">
        <ele>253.6</ele>
        <time>2026-04-26T15:13:29Z</time>
      </trkpt>
      <trkpt lat="44.51371" lon="1.56585">
        <ele>253.7</ele>
        <time>2026-04-26T15:13:30Z</time>
      </trkpt>
      <trkpt lat="44.51371" lon="1.56585">
        <ele>253.8</ele>
        <time>2026-04-26T15:13:31Z</time>
      </trkpt>
      <trkpt lat="44.51371" lon="1.56585">
        <ele>254</ele>
        <time>2026-04-26T15:13:35Z</time>
      </trkpt>
      <trkpt lat="44.51371" lon="1.56585">
        <ele>254</ele>
        <time>2026-04-26T15:13:36Z</time>
      </trkpt>
      <trkpt lat="44.51371" lon="1.56585">
        <ele>254</ele>
        <time>2026-04-26T15:13:37Z</time>
      </trkpt>
      <trkpt lat="44.51372" lon="1.56585">
        <ele>254</ele>
        <time>2026-04-26T15:13:38Z</time>
      </trkpt>
      <trkpt lat="44.51372" lon="1.56585">
        <ele>254</ele>
        <time>2026-04-26T15:13:39Z</time>
      </trkpt>
      <trkpt lat="44.51371" lon="1.56584">
        <ele>254.1</ele>
        <time>2026-04-26T15:13:52Z</time>
      </trkpt>
      <trkpt lat="44.51372" lon="1.56584">
        <ele>254</ele>
        <time>2026-04-26T15:13:57Z</time>
      </trkpt>
      <trkpt lat="44.51372" lon="1.56584">
        <ele>254</ele>
        <time>2026-04-26T15:13:58Z</time>
      </trkpt>
      <trkpt lat="44.51372" lon="1.56584">
        <ele>254.1</ele>
        <time>2026-04-26T15:14:02Z</time>
      </trkpt>
      <trkpt lat="44.51372" lon="1.56584">
        <ele>254.1</ele>
        <time>2026-04-26T15:14:03Z</time>
      </trkpt>
      <trkpt lat="44.51372" lon="1.56584">
        <ele>254</ele>
        <time>2026-04-26T15:14:04Z</time>
      </trkpt>
      <trkpt lat="44.51372" lon="1.56585">
        <ele>254</ele>
        <time>2026-04-26T15:14:07Z</time>
      </trkpt>
      <trkpt lat="44.51372" lon="1.56585">
        <ele>254</ele>
        <time>2026-04-26T15:14:08Z</time>
      </trkpt>
      <trkpt lat="44.51372" lon="1.56584">
        <ele>254</ele>
        <time>2026-04-26T15:14:09Z</time>
      </trkpt>
      <trkpt lat="44.51372" lon="1.56583">
        <ele>253.8</ele>
        <time>2026-04-26T15:14:12Z</time>
      </trkpt>
      <trkpt lat="44.51372" lon="1.56583">
        <ele>253</ele>
        <time>2026-04-26T15:14:13Z</time>
      </trkpt>
      <trkpt lat="44.51373" lon="1.56583">
        <ele>250.9</ele>
        <time>2026-04-26T15:14:14Z</time>
      </trkpt>
      <trkpt lat="44.51373" lon="1.56582">
        <ele>247.9</ele>
        <time>2026-04-26T15:14:17Z</time>
      </trkpt>
      <trkpt lat="44.51373" lon="1.56581">
        <ele>249.8</ele>
        <time>2026-04-26T15:14:18Z</time>
      </trkpt>
      <trkpt lat="44.51371" lon="1.56582">
        <ele>263.2</ele>
        <time>2026-04-26T15:14:21Z</time>
      </trkpt>
      <trkpt lat="44.5137" lon="1.56584">
        <ele>263.7</ele>
        <time>2026-04-26T15:14:22Z</time>
      </trkpt>
      <trkpt lat="44.51375" lon="1.56595">
        <ele>254.2</ele>
        <time>2026-04-26T15:14:43Z</time>
      </trkpt>
      <trkpt lat="44.51378" lon="1.56607">
        <ele>255.2</ele>
        <time>2026-04-26T15:15:00Z</time>
      </trkpt>
      <trkpt lat="44.51382" lon="1.56619">
        <ele>257.2</ele>
        <time>2026-04-26T15:15:15Z</time>
      </trkpt>
      <trkpt lat="44.51385" lon="1.56631">
        <ele>259.1</ele>
        <time>2026-04-26T15:15:29Z</time>
      </trkpt>
      <trkpt lat="44.51388" lon="1.56644">
        <ele>260.9</ele>
        <time>2026-04-26T15:15:41Z</time>
      </trkpt>
      <trkpt lat="44.51391" lon="1.56657">
        <ele>262.6</ele>
        <time>2026-04-26T15:15:54Z</time>
      </trkpt>
      <trkpt lat="44.51395" lon="1.56669">
        <ele>264.6</ele>
        <time>2026-04-26T15:16:08Z</time>
      </trkpt>
      <trkpt lat="44.51394" lon="1.56682">
        <ele>266.2</ele>
        <time>2026-04-26T15:16:20Z</time>
      </trkpt>
      <trkpt lat="44.51397" lon="1.56694">
        <ele>267.7</ele>
        <time>2026-04-26T15:16:33Z</time>
      </trkpt>
      <trkpt lat="44.514" lon="1.56707">
        <ele>270</ele>
        <time>2026-04-26T15:16:50Z</time>
      </trkpt>
      <trkpt lat="44.51403" lon="1.56719">
        <ele>271.9</ele>
        <time>2026-04-26T15:17:05Z</time>
      </trkpt>
      <trkpt lat="44.51408" lon="1.5673">
        <ele>273.4</ele>
        <time>2026-04-26T15:17:17Z</time>
      </trkpt>
      <trkpt lat="44.51411" lon="1.56743">
        <ele>275.5</ele>
        <time>2026-04-26T15:17:33Z</time>
      </trkpt>
      <trkpt lat="44.51415" lon="1.56755">
        <ele>277</ele>
        <time>2026-04-26T15:17:46Z</time>
      </trkpt>
      <trkpt lat="44.51419" lon="1.56767">
        <ele>278.6</ele>
        <time>2026-04-26T15:17:59Z</time>
      </trkpt>
      <trkpt lat="44.51424" lon="1.56778">
        <ele>280.6</ele>
        <time>2026-04-26T15:18:15Z</time>
      </trkpt>
      <trkpt lat="44.51431" lon="1.56787">
        <ele>282</ele>
        <time>2026-04-26T15:18:30Z</time>
      </trkpt>
      <trkpt lat="44.51436" lon="1.56798">
        <ele>283.9</ele>
        <time>2026-04-26T15:18:46Z</time>
      </trkpt>
      <trkpt lat="44.51441" lon="1.56809">
        <ele>285.5</ele>
        <time>2026-04-26T15:19:00Z</time>
      </trkpt>
      <trkpt lat="44.51443" lon="1.56813">
        <ele>286.1</ele>
        <time>2026-04-26T15:19:07Z</time>
      </trkpt>
      <trkpt lat="44.51443" lon="1.56813">
        <ele>286.1</ele>
        <time>2026-04-26T15:19:08Z</time>
      </trkpt>
      <trkpt lat="44.51446" lon="1.56825">
        <ele>288</ele>
        <time>2026-04-26T15:19:28Z</time>
      </trkpt>
      <trkpt lat="44.51451" lon="1.56836">
        <ele>290.7</ele>
        <time>2026-04-26T15:19:47Z</time>
      </trkpt>
      <trkpt lat="44.51458" lon="1.56845">
        <ele>291.8</ele>
        <time>2026-04-26T15:20:00Z</time>
      </trkpt>
      <trkpt lat="44.51464" lon="1.56853">
        <ele>292.7</ele>
        <time>2026-04-26T15:20:09Z</time>
      </trkpt>
      <trkpt lat="44.51472" lon="1.56861">
        <ele>294.1</ele>
        <time>2026-04-26T15:20:21Z</time>
      </trkpt>
      <trkpt lat="44.5148" lon="1.56866">
        <ele>295.4</ele>
        <time>2026-04-26T15:20:32Z</time>
      </trkpt>
      <trkpt lat="44.51485" lon="1.56875">
        <ele>296.5</ele>
        <time>2026-04-26T15:20:45Z</time>
      </trkpt>
      <trkpt lat="44.51485" lon="1.56876">
        <ele>296.6</ele>
        <time>2026-04-26T15:20:46Z</time>
      </trkpt>
      <trkpt lat="44.51481" lon="1.56887">
        <ele>297.8</ele>
        <time>2026-04-26T15:21:02Z</time>
      </trkpt>
      <trkpt lat="44.51471" lon="1.56891">
        <ele>298.5</ele>
        <time>2026-04-26T15:21:14Z</time>
      </trkpt>
      <trkpt lat="44.51464" lon="1.56899">
        <ele>299.5</ele>
        <time>2026-04-26T15:21:29Z</time>
      </trkpt>
      <trkpt lat="44.5146" lon="1.5691">
        <ele>300.6</ele>
        <time>2026-04-26T15:21:42Z</time>
      </trkpt>
      <trkpt lat="44.51464" lon="1.56922">
        <ele>303</ele>
        <time>2026-04-26T15:21:57Z</time>
      </trkpt>
      <trkpt lat="44.51473" lon="1.56927">
        <ele>304.1</ele>
        <time>2026-04-26T15:22:09Z</time>
      </trkpt>
      <trkpt lat="44.51481" lon="1.56934">
        <ele>304.7</ele>
        <time>2026-04-26T15:22:20Z</time>
      </trkpt>
      <trkpt lat="44.51489" lon="1.56941">
        <ele>305.4</ele>
        <time>2026-04-26T15:22:32Z</time>
      </trkpt>
      <trkpt lat="44.51497" lon="1.56949">
        <ele>306.2</ele>
        <time>2026-04-26T15:22:43Z</time>
      </trkpt>
      <trkpt lat="44.51505" lon="1.56955">
        <ele>307.2</ele>
        <time>2026-04-26T15:22:55Z</time>
      </trkpt>
      <trkpt lat="44.51513" lon="1.56961">
        <ele>307.9</ele>
        <time>2026-04-26T15:23:04Z</time>
      </trkpt>
      <trkpt lat="44.51521" lon="1.56968">
        <ele>308.8</ele>
        <time>2026-04-26T15:23:15Z</time>
      </trkpt>
      <trkpt lat="44.51529" lon="1.56974">
        <ele>309.6</ele>
        <time>2026-04-26T15:23:26Z</time>
      </trkpt>
      <trkpt lat="44.51538" lon="1.5698">
        <ele>310.1</ele>
        <time>2026-04-26T15:23:36Z</time>
      </trkpt>
      <trkpt lat="44.51546" lon="1.56986">
        <ele>310.4</ele>
        <time>2026-04-26T15:23:45Z</time>
      </trkpt>
      <trkpt lat="44.51554" lon="1.56994">
        <ele>311.1</ele>
        <time>2026-04-26T15:23:56Z</time>
      </trkpt>
      <trkpt lat="44.51561" lon="1.57002">
        <ele>311.8</ele>
        <time>2026-04-26T15:24:07Z</time>
      </trkpt>
      <trkpt lat="44.51568" lon="1.57012">
        <ele>312.5</ele>
        <time>2026-04-26T15:24:18Z</time>
      </trkpt>
      <trkpt lat="44.51574" lon="1.57022">
        <ele>313.2</ele>
        <time>2026-04-26T15:24:30Z</time>
      </trkpt>
      <trkpt lat="44.5158" lon="1.57032">
        <ele>313.8</ele>
        <time>2026-04-26T15:24:39Z</time>
      </trkpt>
      <trkpt lat="44.51585" lon="1.57043">
        <ele>314.2</ele>
        <time>2026-04-26T15:24:50Z</time>
      </trkpt>
      <trkpt lat="44.51592" lon="1.57052">
        <ele>314.7</ele>
        <time>2026-04-26T15:25:01Z</time>
      </trkpt>
      <trkpt lat="44.51598" lon="1.57062">
        <ele>315.2</ele>
        <time>2026-04-26T15:25:10Z</time>
      </trkpt>
      <trkpt lat="44.51605" lon="1.57071">
        <ele>315.8</ele>
        <time>2026-04-26T15:25:20Z</time>
      </trkpt>
      <trkpt lat="44.51612" lon="1.57078">
        <ele>316.1</ele>
        <time>2026-04-26T15:25:29Z</time>
      </trkpt>
      <trkpt lat="44.51619" lon="1.57088">
        <ele>316.6</ele>
        <time>2026-04-26T15:25:40Z</time>
      </trkpt>
      <trkpt lat="44.51625" lon="1.57098">
        <ele>317.3</ele>
        <time>2026-04-26T15:25:49Z</time>
      </trkpt>
      <trkpt lat="44.51631" lon="1.57107">
        <ele>317.9</ele>
        <time>2026-04-26T15:25:57Z</time>
      </trkpt>
      <trkpt lat="44.51637" lon="1.57118">
        <ele>318.5</ele>
        <time>2026-04-26T15:26:06Z</time>
      </trkpt>
      <trkpt lat="44.51644" lon="1.57127">
        <ele>318.9</ele>
        <time>2026-04-26T15:26:15Z</time>
      </trkpt>
      <trkpt lat="44.51652" lon="1.57135">
        <ele>319.3</ele>
        <time>2026-04-26T15:26:24Z</time>
      </trkpt>
      <trkpt lat="44.51661" lon="1.57137">
        <ele>320</ele>
        <time>2026-04-26T15:26:35Z</time>
      </trkpt>
      <trkpt lat="44.51666" lon="1.57148">
        <ele>321.1</ele>
        <time>2026-04-26T15:26:48Z</time>
      </trkpt>
      <trkpt lat="44.51666" lon="1.57148">
        <ele>321.4</ele>
        <time>2026-04-26T15:26:50Z</time>
      </trkpt>
      <trkpt lat="44.51666" lon="1.57148">
        <ele>321.6</ele>
        <time>2026-04-26T15:26:51Z</time>
      </trkpt>
      <trkpt lat="44.51667" lon="1.57148">
        <ele>322.1</ele>
        <time>2026-04-26T15:26:59Z</time>
      </trkpt>
      <trkpt lat="44.51668" lon="1.57147">
        <ele>322.2</ele>
        <time>2026-04-26T15:27:00Z</time>
      </trkpt>
      <trkpt lat="44.51668" lon="1.57146">
        <ele>322.2</ele>
        <time>2026-04-26T15:27:01Z</time>
      </trkpt>
      <trkpt lat="44.51674" lon="1.57135">
        <ele>322.1</ele>
        <time>2026-04-26T15:27:14Z</time>
      </trkpt>
      <trkpt lat="44.5168" lon="1.57124">
        <ele>321.7</ele>
        <time>2026-04-26T15:27:28Z</time>
      </trkpt>
      <trkpt lat="44.51686" lon="1.57113">
        <ele>321.2</ele>
        <time>2026-04-26T15:27:37Z</time>
      </trkpt>
      <trkpt lat="44.51691" lon="1.57103">
        <ele>320.4</ele>
        <time>2026-04-26T15:27:46Z</time>
      </trkpt>
      <trkpt lat="44.51697" lon="1.57093">
        <ele>319.9</ele>
        <time>2026-04-26T15:27:56Z</time>
      </trkpt>
      <trkpt lat="44.51704" lon="1.57085">
        <ele>319.6</ele>
        <time>2026-04-26T15:28:04Z</time>
      </trkpt>
      <trkpt lat="44.5171" lon="1.57076">
        <ele>319.4</ele>
        <time>2026-04-26T15:28:15Z</time>
      </trkpt>
      <trkpt lat="44.51717" lon="1.57067">
        <ele>319.3</ele>
        <time>2026-04-26T15:28:26Z</time>
      </trkpt>
      <trkpt lat="44.51724" lon="1.57057">
        <ele>319.2</ele>
        <time>2026-04-26T15:28:34Z</time>
      </trkpt>
      <trkpt lat="44.51731" lon="1.57047">
        <ele>319.3</ele>
        <time>2026-04-26T15:28:43Z</time>
      </trkpt>
      <trkpt lat="44.51737" lon="1.57037">
        <ele>319.4</ele>
        <time>2026-04-26T15:28:51Z</time>
      </trkpt>
      <trkpt lat="44.51742" lon="1.57027">
        <ele>319.5</ele>
        <time>2026-04-26T15:28:59Z</time>
      </trkpt>
      <trkpt lat="44.51746" lon="1.57013">
        <ele>319.6</ele>
        <time>2026-04-26T15:29:08Z</time>
      </trkpt>
      <trkpt lat="44.51749" lon="1.57001">
        <ele>319.8</ele>
        <time>2026-04-26T15:29:18Z</time>
      </trkpt>
      <trkpt lat="44.51752" lon="1.56987">
        <ele>320</ele>
        <time>2026-04-26T15:29:28Z</time>
      </trkpt>
      <trkpt lat="44.51755" lon="1.56974">
        <ele>320.4</ele>
        <time>2026-04-26T15:29:37Z</time>
      </trkpt>
      <trkpt lat="44.51758" lon="1.56962">
        <ele>320.6</ele>
        <time>2026-04-26T15:29:46Z</time>
      </trkpt>
      <trkpt lat="44.51761" lon="1.5695">
        <ele>320.9</ele>
        <time>2026-04-26T15:29:56Z</time>
      </trkpt>
      <trkpt lat="44.51765" lon="1.56938">
        <ele>321.1</ele>
        <time>2026-04-26T15:30:05Z</time>
      </trkpt>
      <trkpt lat="44.51767" lon="1.56925">
        <ele>321.4</ele>
        <time>2026-04-26T15:30:13Z</time>
      </trkpt>
      <trkpt lat="44.51768" lon="1.56912">
        <ele>321.8</ele>
        <time>2026-04-26T15:30:21Z</time>
      </trkpt>
      <trkpt lat="44.51768" lon="1.56898">
        <ele>321.9</ele>
        <time>2026-04-26T15:30:30Z</time>
      </trkpt>
      <trkpt lat="44.51768" lon="1.56884">
        <ele>321.9</ele>
        <time>2026-04-26T15:30:38Z</time>
      </trkpt>
      <trkpt lat="44.51768" lon="1.5687">
        <ele>321.8</ele>
        <time>2026-04-26T15:30:47Z</time>
      </trkpt>
      <trkpt lat="44.5177" lon="1.56857">
        <ele>321.7</ele>
        <time>2026-04-26T15:30:56Z</time>
      </trkpt>
      <trkpt lat="44.51772" lon="1.56842">
        <ele>321.6</ele>
        <time>2026-04-26T15:31:09Z</time>
      </trkpt>
      <trkpt lat="44.51772" lon="1.56829">
        <ele>321.5</ele>
        <time>2026-04-26T15:31:17Z</time>
      </trkpt>
      <trkpt lat="44.51773" lon="1.56815">
        <ele>321.5</ele>
        <time>2026-04-26T15:31:25Z</time>
      </trkpt>
      <trkpt lat="44.51774" lon="1.56801">
        <ele>321.4</ele>
        <time>2026-04-26T15:31:34Z</time>
      </trkpt>
      <trkpt lat="44.51774" lon="1.56787">
        <ele>321.3</ele>
        <time>2026-04-26T15:31:43Z</time>
      </trkpt>
      <trkpt lat="44.51774" lon="1.56785">
        <ele>321.2</ele>
        <time>2026-04-26T15:31:55Z</time>
      </trkpt>
      <trkpt lat="44.51774" lon="1.56785">
        <ele>321.1</ele>
        <time>2026-04-26T15:31:56Z</time>
      </trkpt>
      <trkpt lat="44.51774" lon="1.56785">
        <ele>321.1</ele>
        <time>2026-04-26T15:31:57Z</time>
      </trkpt>
      <trkpt lat="44.51775" lon="1.56786">
        <ele>321.1</ele>
        <time>2026-04-26T15:32:04Z</time>
      </trkpt>
      <trkpt lat="44.51775" lon="1.56786">
        <ele>321.1</ele>
        <time>2026-04-26T15:32:05Z</time>
      </trkpt>
      <trkpt lat="44.51775" lon="1.56786">
        <ele>321.1</ele>
        <time>2026-04-26T15:32:06Z</time>
      </trkpt>
      <trkpt lat="44.51775" lon="1.56786">
        <ele>321.1</ele>
        <time>2026-04-26T15:32:07Z</time>
      </trkpt>
      <trkpt lat="44.51775" lon="1.56786">
        <ele>321.1</ele>
        <time>2026-04-26T15:32:08Z</time>
      </trkpt>
      <trkpt lat="44.51775" lon="1.56786">
        <ele>321.1</ele>
        <time>2026-04-26T15:32:09Z</time>
      </trkpt>
      <trkpt lat="44.51775" lon="1.56784">
        <ele>321.1</ele>
        <time>2026-04-26T15:32:13Z</time>
      </trkpt>
      <trkpt lat="44.51774" lon="1.56771">
        <ele>321.1</ele>
        <time>2026-04-26T15:32:22Z</time>
      </trkpt>
      <trkpt lat="44.51774" lon="1.56758">
        <ele>321</ele>
        <time>2026-04-26T15:32:32Z</time>
      </trkpt>
      <trkpt lat="44.51772" lon="1.56745">
        <ele>320.8</ele>
        <time>2026-04-26T15:32:41Z</time>
      </trkpt>
      <trkpt lat="44.51771" lon="1.56733">
        <ele>320.8</ele>
        <time>2026-04-26T15:33:00Z</time>
      </trkpt>
      <trkpt lat="44.51771" lon="1.56733">
        <ele>320.8</ele>
        <time>2026-04-26T15:33:01Z</time>
      </trkpt>
      <trkpt lat="44.51772" lon="1.56732">
        <ele>320.8</ele>
        <time>2026-04-26T15:33:07Z</time>
      </trkpt>
      <trkpt lat="44.51772" lon="1.56731">
        <ele>320.8</ele>
        <time>2026-04-26T15:33:08Z</time>
      </trkpt>
      <trkpt lat="44.51772" lon="1.56729">
        <ele>320.8</ele>
        <time>2026-04-26T15:33:09Z</time>
      </trkpt>
      <trkpt lat="44.5177" lon="1.56716">
        <ele>320.9</ele>
        <time>2026-04-26T15:33:19Z</time>
      </trkpt>
      <trkpt lat="44.51768" lon="1.56702">
        <ele>320.9</ele>
        <time>2026-04-26T15:33:29Z</time>
      </trkpt>
      <trkpt lat="44.51768" lon="1.56689">
        <ele>321</ele>
        <time>2026-04-26T15:33:35Z</time>
      </trkpt>
      <trkpt lat="44.51768" lon="1.5669">
        <ele>321.8</ele>
        <time>2026-04-26T15:33:50Z</time>
      </trkpt>
      <trkpt lat="44.51768" lon="1.5669">
        <ele>321.9</ele>
        <time>2026-04-26T15:33:51Z</time>
      </trkpt>
      <trkpt lat="44.51769" lon="1.5669">
        <ele>322.5</ele>
        <time>2026-04-26T15:34:04Z</time>
      </trkpt>
      <trkpt lat="44.51769" lon="1.56689">
        <ele>322.5</ele>
        <time>2026-04-26T15:34:05Z</time>
      </trkpt>
      <trkpt lat="44.51769" lon="1.56688">
        <ele>322.6</ele>
        <time>2026-04-26T15:34:06Z</time>
      </trkpt>
      <trkpt lat="44.51769" lon="1.56688">
        <ele>322.6</ele>
        <time>2026-04-26T15:34:07Z</time>
      </trkpt>
      <trkpt lat="44.51769" lon="1.56687">
        <ele>322.6</ele>
        <time>2026-04-26T15:34:08Z</time>
      </trkpt>
      <trkpt lat="44.51769" lon="1.56687">
        <ele>322.6</ele>
        <time>2026-04-26T15:34:09Z</time>
      </trkpt>
      <trkpt lat="44.51765" lon="1.56675">
        <ele>322.1</ele>
        <time>2026-04-26T15:34:21Z</time>
      </trkpt>
      <trkpt lat="44.51765" lon="1.56661">
        <ele>321.9</ele>
        <time>2026-04-26T15:34:30Z</time>
      </trkpt>
      <trkpt lat="44.51766" lon="1.56653">
        <ele>321.9</ele>
        <time>2026-04-26T15:34:42Z</time>
      </trkpt>
      <trkpt lat="44.51766" lon="1.56654">
        <ele>321.9</ele>
        <time>2026-04-26T15:34:43Z</time>
      </trkpt>
      <trkpt lat="44.51766" lon="1.56654">
        <ele>321.9</ele>
        <time>2026-04-26T15:34:44Z</time>
      </trkpt>
      <trkpt lat="44.51766" lon="1.56654">
        <ele>321.9</ele>
        <time>2026-04-26T15:34:45Z</time>
      </trkpt>
      <trkpt lat="44.51766" lon="1.56653">
        <ele>321.9</ele>
        <time>2026-04-26T15:34:46Z</time>
      </trkpt>
      <trkpt lat="44.51766" lon="1.56653">
        <ele>321.9</ele>
        <time>2026-04-26T15:34:47Z</time>
      </trkpt>
      <trkpt lat="44.51767" lon="1.56652">
        <ele>322</ele>
        <time>2026-04-26T15:34:48Z</time>
      </trkpt>
      <trkpt lat="44.51767" lon="1.56652">
        <ele>322</ele>
        <time>2026-04-26T15:34:49Z</time>
      </trkpt>
      <trkpt lat="44.51768" lon="1.56651">
        <ele>322</ele>
        <time>2026-04-26T15:34:50Z</time>
      </trkpt>
      <trkpt lat="44.51768" lon="1.5665">
        <ele>322</ele>
        <time>2026-04-26T15:34:51Z</time>
      </trkpt>
      <trkpt lat="44.51768" lon="1.56649">
        <ele>322.1</ele>
        <time>2026-04-26T15:34:57Z</time>
      </trkpt>
      <trkpt lat="44.51768" lon="1.56649">
        <ele>322.1</ele>
        <time>2026-04-26T15:34:58Z</time>
      </trkpt>
      <trkpt lat="44.51768" lon="1.56649">
        <ele>322.1</ele>
        <time>2026-04-26T15:34:59Z</time>
      </trkpt>
      <trkpt lat="44.51768" lon="1.56649">
        <ele>322.1</ele>
        <time>2026-04-26T15:35:02Z</time>
      </trkpt>
      <trkpt lat="44.51768" lon="1.56649">
        <ele>322.1</ele>
        <time>2026-04-26T15:35:03Z</time>
      </trkpt>
      <trkpt lat="44.51768" lon="1.56649">
        <ele>322.1</ele>
        <time>2026-04-26T15:35:04Z</time>
      </trkpt>
      <trkpt lat="44.51768" lon="1.56642">
        <ele>321.9</ele>
        <time>2026-04-26T15:35:20Z</time>
      </trkpt>
      <trkpt lat="44.51768" lon="1.56642">
        <ele>321.9</ele>
        <time>2026-04-26T15:35:21Z</time>
      </trkpt>
      <trkpt lat="44.51769" lon="1.56642">
        <ele>321.9</ele>
        <time>2026-04-26T15:35:25Z</time>
      </trkpt>
      <trkpt lat="44.51769" lon="1.56642">
        <ele>321.9</ele>
        <time>2026-04-26T15:35:26Z</time>
      </trkpt>
      <trkpt lat="44.51766" lon="1.56631">
        <ele>321.9</ele>
        <time>2026-04-26T15:35:48Z</time>
      </trkpt>
      <trkpt lat="44.51764" lon="1.56617">
        <ele>321.6</ele>
        <time>2026-04-26T15:35:58Z</time>
      </trkpt>
      <trkpt lat="44.51764" lon="1.56605">
        <ele>321.1</ele>
        <time>2026-04-26T15:36:07Z</time>
      </trkpt>
      <trkpt lat="44.51764" lon="1.56591">
        <ele>320.4</ele>
        <time>2026-04-26T15:36:15Z</time>
      </trkpt>
      <trkpt lat="44.51764" lon="1.56578">
        <ele>319.7</ele>
        <time>2026-04-26T15:36:22Z</time>
      </trkpt>
      <trkpt lat="44.51764" lon="1.56565">
        <ele>318.3</ele>
        <time>2026-04-26T15:36:32Z</time>
      </trkpt>
      <trkpt lat="44.51763" lon="1.56551">
        <ele>317</ele>
        <time>2026-04-26T15:36:41Z</time>
      </trkpt>
      <trkpt lat="44.51762" lon="1.56538">
        <ele>316</ele>
        <time>2026-04-26T15:36:51Z</time>
      </trkpt>
      <trkpt lat="44.5176" lon="1.56525">
        <ele>314.5</ele>
        <time>2026-04-26T15:37:03Z</time>
      </trkpt>
      <trkpt lat="44.51759" lon="1.56512">
        <ele>313.1</ele>
        <time>2026-04-26T15:37:14Z</time>
      </trkpt>
      <trkpt lat="44.51757" lon="1.56499">
        <ele>311.8</ele>
        <time>2026-04-26T15:37:24Z</time>
      </trkpt>
      <trkpt lat="44.51756" lon="1.56486">
        <ele>310.4</ele>
        <time>2026-04-26T15:37:34Z</time>
      </trkpt>
      <trkpt lat="44.51755" lon="1.56473">
        <ele>309.2</ele>
        <time>2026-04-26T15:37:44Z</time>
      </trkpt>
      <trkpt lat="44.51752" lon="1.56459">
        <ele>307.9</ele>
        <time>2026-04-26T15:37:55Z</time>
      </trkpt>
      <trkpt lat="44.5175" lon="1.56452">
        <ele>306.9</ele>
        <time>2026-04-26T15:38:04Z</time>
      </trkpt>
      <trkpt lat="44.5175" lon="1.56451">
        <ele>306.9</ele>
        <time>2026-04-26T15:38:05Z</time>
      </trkpt>
      <trkpt lat="44.51746" lon="1.56439">
        <ele>306.2</ele>
        <time>2026-04-26T15:38:15Z</time>
      </trkpt>
      <trkpt lat="44.51744" lon="1.56426">
        <ele>305.2</ele>
        <time>2026-04-26T15:38:24Z</time>
      </trkpt>
      <trkpt lat="44.51742" lon="1.56413">
        <ele>304.2</ele>
        <time>2026-04-26T15:38:33Z</time>
      </trkpt>
      <trkpt lat="44.51742" lon="1.564">
        <ele>303</ele>
        <time>2026-04-26T15:38:43Z</time>
      </trkpt>
      <trkpt lat="44.51741" lon="1.56386">
        <ele>302.1</ele>
        <time>2026-04-26T15:38:54Z</time>
      </trkpt>
      <trkpt lat="44.51744" lon="1.56374">
        <ele>300.6</ele>
        <time>2026-04-26T15:39:12Z</time>
      </trkpt>
      <trkpt lat="44.51744" lon="1.56361">
        <ele>299.8</ele>
        <time>2026-04-26T15:39:22Z</time>
      </trkpt>
      <trkpt lat="44.51741" lon="1.56348">
        <ele>298.8</ele>
        <time>2026-04-26T15:39:31Z</time>
      </trkpt>
      <trkpt lat="44.5174" lon="1.56335">
        <ele>298</ele>
        <time>2026-04-26T15:39:41Z</time>
      </trkpt>
      <trkpt lat="44.51742" lon="1.56323">
        <ele>296.9</ele>
        <time>2026-04-26T15:39:53Z</time>
      </trkpt>
      <trkpt lat="44.51746" lon="1.5631">
        <ele>295.6</ele>
        <time>2026-04-26T15:40:03Z</time>
      </trkpt>
      <trkpt lat="44.51752" lon="1.56299">
        <ele>294.5</ele>
        <time>2026-04-26T15:40:13Z</time>
      </trkpt>
      <trkpt lat="44.51758" lon="1.56289">
        <ele>293.4</ele>
        <time>2026-04-26T15:40:24Z</time>
      </trkpt>
      <trkpt lat="44.51762" lon="1.56277">
        <ele>292.1</ele>
        <time>2026-04-26T15:40:34Z</time>
      </trkpt>
      <trkpt lat="44.51767" lon="1.56265">
        <ele>289.5</ele>
        <time>2026-04-26T15:40:50Z</time>
      </trkpt>
      <trkpt lat="44.51771" lon="1.56253">
        <ele>288.1</ele>
        <time>2026-04-26T15:41:00Z</time>
      </trkpt>
      <trkpt lat="44.51771" lon="1.56249">
        <ele>287.7</ele>
        <time>2026-04-26T15:41:12Z</time>
      </trkpt>
      <trkpt lat="44.51771" lon="1.56249">
        <ele>287.8</ele>
        <time>2026-04-26T15:41:13Z</time>
      </trkpt>
      <trkpt lat="44.51771" lon="1.56249">
        <ele>287.7</ele>
        <time>2026-04-26T15:41:14Z</time>
      </trkpt>
      <trkpt lat="44.51772" lon="1.56245">
        <ele>287.2</ele>
        <time>2026-04-26T15:41:35Z</time>
      </trkpt>
      <trkpt lat="44.51772" lon="1.56245">
        <ele>287.1</ele>
        <time>2026-04-26T15:41:36Z</time>
      </trkpt>
      <trkpt lat="44.51771" lon="1.56245">
        <ele>287</ele>
        <time>2026-04-26T15:41:37Z</time>
      </trkpt>
      <trkpt lat="44.51771" lon="1.56245">
        <ele>286.8</ele>
        <time>2026-04-26T15:41:38Z</time>
      </trkpt>
      <trkpt lat="44.51771" lon="1.56245">
        <ele>286.4</ele>
        <time>2026-04-26T15:41:39Z</time>
      </trkpt>
      <trkpt lat="44.51771" lon="1.56245">
        <ele>287.9</ele>
        <time>2026-04-26T15:41:45Z</time>
      </trkpt>
      <trkpt lat="44.51771" lon="1.56245">
        <ele>287.7</ele>
        <time>2026-04-26T15:41:46Z</time>
      </trkpt>
      <trkpt lat="44.5178" lon="1.56241">
        <ele>285.7</ele>
        <time>2026-04-26T15:42:05Z</time>
      </trkpt>
      <trkpt lat="44.51787" lon="1.56234">
        <ele>283.6</ele>
        <time>2026-04-26T15:42:19Z</time>
      </trkpt>
      <trkpt lat="44.51794" lon="1.56224">
        <ele>280.3</ele>
        <time>2026-04-26T15:42:40Z</time>
      </trkpt>
      <trkpt lat="44.51803" lon="1.56219">
        <ele>277.9</ele>
        <time>2026-04-26T15:42:56Z</time>
      </trkpt>
      <trkpt lat="44.51811" lon="1.56215">
        <ele>276.3</ele>
        <time>2026-04-26T15:43:09Z</time>
      </trkpt>
      <trkpt lat="44.51821" lon="1.56214">
        <ele>274.2</ele>
        <time>2026-04-26T15:43:25Z</time>
      </trkpt>
      <trkpt lat="44.5183" lon="1.56212">
        <ele>271.9</ele>
        <time>2026-04-26T15:43:44Z</time>
      </trkpt>
      <trkpt lat="44.51839" lon="1.56215">
        <ele>269.4</ele>
        <time>2026-04-26T15:44:03Z</time>
      </trkpt>
      <trkpt lat="44.51848" lon="1.56216">
        <ele>267.7</ele>
        <time>2026-04-26T15:44:15Z</time>
      </trkpt>
      <trkpt lat="44.51857" lon="1.56221">
        <ele>265.7</ele>
        <time>2026-04-26T15:44:31Z</time>
      </trkpt>
      <trkpt lat="44.51867" lon="1.56227">
        <ele>264.1</ele>
        <time>2026-04-26T15:44:43Z</time>
      </trkpt>
      <trkpt lat="44.51874" lon="1.56235">
        <ele>262.5</ele>
        <time>2026-04-26T15:45:00Z</time>
      </trkpt>
      <trkpt lat="44.51877" lon="1.56247">
        <ele>260.3</ele>
        <time>2026-04-26T15:45:21Z</time>
      </trkpt>
      <trkpt lat="44.5188" lon="1.56261">
        <ele>258.7</ele>
        <time>2026-04-26T15:45:41Z</time>
      </trkpt>
      <trkpt lat="44.51881" lon="1.56273">
        <ele>256.5</ele>
        <time>2026-04-26T15:45:55Z</time>
      </trkpt>
      <trkpt lat="44.51881" lon="1.56287">
        <ele>254.5</ele>
        <time>2026-04-26T15:46:12Z</time>
      </trkpt>
      <trkpt lat="44.51883" lon="1.563">
        <ele>253</ele>
        <time>2026-04-26T15:46:26Z</time>
      </trkpt>
      <trkpt lat="44.51885" lon="1.56312">
        <ele>250.9</ele>
        <time>2026-04-26T15:46:42Z</time>
      </trkpt>
      <trkpt lat="44.51886" lon="1.56325">
        <ele>248.9</ele>
        <time>2026-04-26T15:46:59Z</time>
      </trkpt>
      <trkpt lat="44.51886" lon="1.56339">
        <ele>247.3</ele>
        <time>2026-04-26T15:47:13Z</time>
      </trkpt>
      <trkpt lat="44.51894" lon="1.56347">
        <ele>245.5</ele>
        <time>2026-04-26T15:47:30Z</time>
      </trkpt>
      <trkpt lat="44.51903" lon="1.56344">
        <ele>242.3</ele>
        <time>2026-04-26T15:47:52Z</time>
      </trkpt>
      <trkpt lat="44.51909" lon="1.56334">
        <ele>239.7</ele>
        <time>2026-04-26T15:48:07Z</time>
      </trkpt>
      <trkpt lat="44.51916" lon="1.56325">
        <ele>236.7</ele>
        <time>2026-04-26T15:48:25Z</time>
      </trkpt>
      <trkpt lat="44.51923" lon="1.56316">
        <ele>234.9</ele>
        <time>2026-04-26T15:48:37Z</time>
      </trkpt>
      <trkpt lat="44.5193" lon="1.56308">
        <ele>232.8</ele>
        <time>2026-04-26T15:48:52Z</time>
      </trkpt>
      <trkpt lat="44.51938" lon="1.56305">
        <ele>230.9</ele>
        <time>2026-04-26T15:49:05Z</time>
      </trkpt>
      <trkpt lat="44.51947" lon="1.563">
        <ele>229.2</ele>
        <time>2026-04-26T15:49:20Z</time>
      </trkpt>
      <trkpt lat="44.51956" lon="1.56296">
        <ele>228.2</ele>
        <time>2026-04-26T15:49:33Z</time>
      </trkpt>
      <trkpt lat="44.51965" lon="1.56289">
        <ele>226.3</ele>
        <time>2026-04-26T15:49:47Z</time>
      </trkpt>
      <trkpt lat="44.51973" lon="1.56282">
        <ele>224.3</ele>
        <time>2026-04-26T15:50:01Z</time>
      </trkpt>
      <trkpt lat="44.5198" lon="1.56274">
        <ele>222.7</ele>
        <time>2026-04-26T15:50:11Z</time>
      </trkpt>
      <trkpt lat="44.51987" lon="1.56265">
        <ele>220.8</ele>
        <time>2026-04-26T15:50:27Z</time>
      </trkpt>
      <trkpt lat="44.51994" lon="1.56255">
        <ele>219.3</ele>
        <time>2026-04-26T15:50:39Z</time>
      </trkpt>
      <trkpt lat="44.51999" lon="1.56244">
        <ele>217.3</ele>
        <time>2026-04-26T15:50:52Z</time>
      </trkpt>
      <trkpt lat="44.52002" lon="1.56231">
        <ele>215.3</ele>
        <time>2026-04-26T15:51:05Z</time>
      </trkpt>
      <trkpt lat="44.52001" lon="1.56218">
        <ele>214.3</ele>
        <time>2026-04-26T15:51:14Z</time>
      </trkpt>
      <trkpt lat="44.52002" lon="1.56204">
        <ele>212.3</ele>
        <time>2026-04-26T15:51:31Z</time>
      </trkpt>
      <trkpt lat="44.52001" lon="1.56191">
        <ele>210.8</ele>
        <time>2026-04-26T15:51:41Z</time>
      </trkpt>
      <trkpt lat="44.52" lon="1.56177">
        <ele>208.3</ele>
        <time>2026-04-26T15:51:57Z</time>
      </trkpt>
      <trkpt lat="44.51998" lon="1.56164">
        <ele>206.8</ele>
        <time>2026-04-26T15:52:09Z</time>
      </trkpt>
      <trkpt lat="44.51998" lon="1.56151">
        <ele>205.2</ele>
        <time>2026-04-26T15:52:23Z</time>
      </trkpt>
      <trkpt lat="44.52" lon="1.56137">
        <ele>203.6</ele>
        <time>2026-04-26T15:52:34Z</time>
      </trkpt>
      <trkpt lat="44.52004" lon="1.56125">
        <ele>201.4</ele>
        <time>2026-04-26T15:52:50Z</time>
      </trkpt>
      <trkpt lat="44.52005" lon="1.56113">
        <ele>199.7</ele>
        <time>2026-04-26T15:53:03Z</time>
      </trkpt>
      <trkpt lat="44.52003" lon="1.561">
        <ele>198.6</ele>
        <time>2026-04-26T15:53:13Z</time>
      </trkpt>
      <trkpt lat="44.52004" lon="1.56087">
        <ele>197</ele>
        <time>2026-04-26T15:53:25Z</time>
      </trkpt>
      <trkpt lat="44.52004" lon="1.56073">
        <ele>195.3</ele>
        <time>2026-04-26T15:53:43Z</time>
      </trkpt>
      <trkpt lat="44.52003" lon="1.5606">
        <ele>194</ele>
        <time>2026-04-26T15:53:53Z</time>
      </trkpt>
      <trkpt lat="44.52001" lon="1.56047">
        <ele>192.8</ele>
        <time>2026-04-26T15:54:03Z</time>
      </trkpt>
      <trkpt lat="44.51997" lon="1.56035">
        <ele>191.2</ele>
        <time>2026-04-26T15:54:14Z</time>
      </trkpt>
      <trkpt lat="44.51992" lon="1.56024">
        <ele>189.2</ele>
        <time>2026-04-26T15:54:26Z</time>
      </trkpt>
      <trkpt lat="44.51986" lon="1.56014">
        <ele>187.8</ele>
        <time>2026-04-26T15:54:36Z</time>
      </trkpt>
      <trkpt lat="44.5198" lon="1.56004">
        <ele>185.9</ele>
        <time>2026-04-26T15:54:51Z</time>
      </trkpt>
      <trkpt lat="44.51974" lon="1.55993">
        <ele>183.9</ele>
        <time>2026-04-26T15:55:03Z</time>
      </trkpt>
      <trkpt lat="44.51971" lon="1.55981">
        <ele>182</ele>
        <time>2026-04-26T15:55:15Z</time>
      </trkpt>
      <trkpt lat="44.51966" lon="1.55969">
        <ele>180.5</ele>
        <time>2026-04-26T15:55:27Z</time>
      </trkpt>
      <trkpt lat="44.51962" lon="1.55958">
        <ele>179.5</ele>
        <time>2026-04-26T15:55:35Z</time>
      </trkpt>
      <trkpt lat="44.51961" lon="1.55951">
        <ele>177.8</ele>
        <time>2026-04-26T15:55:47Z</time>
      </trkpt>
      <trkpt lat="44.51961" lon="1.5595">
        <ele>177.7</ele>
        <time>2026-04-26T15:55:48Z</time>
      </trkpt>
      <trkpt lat="44.51961" lon="1.55949">
        <ele>177.6</ele>
        <time>2026-04-26T15:55:49Z</time>
      </trkpt>
      <trkpt lat="44.51961" lon="1.55949">
        <ele>177.6</ele>
        <time>2026-04-26T15:55:50Z</time>
      </trkpt>
      <trkpt lat="44.51961" lon="1.55949">
        <ele>177.5</ele>
        <time>2026-04-26T15:55:51Z</time>
      </trkpt>
      <trkpt lat="44.51961" lon="1.55949">
        <ele>177.4</ele>
        <time>2026-04-26T15:55:57Z</time>
      </trkpt>
      <trkpt lat="44.51961" lon="1.55949">
        <ele>177.4</ele>
        <time>2026-04-26T15:55:58Z</time>
      </trkpt>
      <trkpt lat="44.51961" lon="1.55949">
        <ele>177.4</ele>
        <time>2026-04-26T15:55:59Z</time>
      </trkpt>
      <trkpt lat="44.51961" lon="1.55949">
        <ele>177.4</ele>
        <time>2026-04-26T15:56:00Z</time>
      </trkpt>
      <trkpt lat="44.51961" lon="1.55949">
        <ele>177.4</ele>
        <time>2026-04-26T15:56:01Z</time>
      </trkpt>
      <trkpt lat="44.51961" lon="1.55949">
        <ele>177.4</ele>
        <time>2026-04-26T15:56:02Z</time>
      </trkpt>
      <trkpt lat="44.51961" lon="1.55949">
        <ele>177.3</ele>
        <time>2026-04-26T15:56:03Z</time>
      </trkpt>
      <trkpt lat="44.51961" lon="1.55949">
        <ele>177.3</ele>
        <time>2026-04-26T15:56:04Z</time>
      </trkpt>
      <trkpt lat="44.51961" lon="1.55949">
        <ele>177.3</ele>
        <time>2026-04-26T15:56:05Z</time>
      </trkpt>
      <trkpt lat="44.51961" lon="1.55949">
        <ele>177.3</ele>
        <time>2026-04-26T15:56:06Z</time>
      </trkpt>
      <trkpt lat="44.51961" lon="1.55949">
        <ele>177.3</ele>
        <time>2026-04-26T15:56:07Z</time>
      </trkpt>
      <trkpt lat="44.51961" lon="1.55949">
        <ele>177.3</ele>
        <time>2026-04-26T15:56:08Z</time>
      </trkpt>
      <trkpt lat="44.51961" lon="1.55949">
        <ele>177.3</ele>
        <time>2026-04-26T15:56:09Z</time>
      </trkpt>
      <trkpt lat="44.51961" lon="1.55949">
        <ele>177.3</ele>
        <time>2026-04-26T15:56:12Z</time>
      </trkpt>
      <trkpt lat="44.51961" lon="1.55948">
        <ele>177.3</ele>
        <time>2026-04-26T15:56:13Z</time>
      </trkpt>
      <trkpt lat="44.51961" lon="1.55948">
        <ele>177.3</ele>
        <time>2026-04-26T15:56:14Z</time>
      </trkpt>
      <trkpt lat="44.5196" lon="1.55948">
        <ele>177.2</ele>
        <time>2026-04-26T15:56:20Z</time>
      </trkpt>
      <trkpt lat="44.5196" lon="1.55948">
        <ele>177.2</ele>
        <time>2026-04-26T15:56:21Z</time>
      </trkpt>
      <trkpt lat="44.51959" lon="1.55949">
        <ele>177.2</ele>
        <time>2026-04-26T15:56:30Z</time>
      </trkpt>
      <trkpt lat="44.51959" lon="1.5595">
        <ele>177.2</ele>
        <time>2026-04-26T15:56:31Z</time>
      </trkpt>
      <trkpt lat="44.5196" lon="1.55951">
        <ele>177.2</ele>
        <time>2026-04-26T15:56:37Z</time>
      </trkpt>
      <trkpt lat="44.5196" lon="1.55951">
        <ele>177.2</ele>
        <time>2026-04-26T15:56:38Z</time>
      </trkpt>
      <trkpt lat="44.5196" lon="1.55951">
        <ele>177.2</ele>
        <time>2026-04-26T15:56:39Z</time>
      </trkpt>
      <trkpt lat="44.51961" lon="1.5595">
        <ele>177.2</ele>
        <time>2026-04-26T15:56:42Z</time>
      </trkpt>
      <trkpt lat="44.51961" lon="1.5595">
        <ele>177.2</ele>
        <time>2026-04-26T15:56:43Z</time>
      </trkpt>
      <trkpt lat="44.51961" lon="1.5595">
        <ele>177.2</ele>
        <time>2026-04-26T15:56:44Z</time>
      </trkpt>
      <trkpt lat="44.51961" lon="1.55949">
        <ele>177.2</ele>
        <time>2026-04-26T15:56:45Z</time>
      </trkpt>
      <trkpt lat="44.51961" lon="1.55949">
        <ele>177.2</ele>
        <time>2026-04-26T15:56:46Z</time>
      </trkpt>
      <trkpt lat="44.51961" lon="1.55948">
        <ele>177.2</ele>
        <time>2026-04-26T15:56:47Z</time>
      </trkpt>
      <trkpt lat="44.51961" lon="1.55948">
        <ele>177.2</ele>
        <time>2026-04-26T15:56:48Z</time>
      </trkpt>
      <trkpt lat="44.51961" lon="1.55948">
        <ele>177.2</ele>
        <time>2026-04-26T15:56:49Z</time>
      </trkpt>
      <trkpt lat="44.51962" lon="1.55947">
        <ele>177.2</ele>
        <time>2026-04-26T15:56:52Z</time>
      </trkpt>
      <trkpt lat="44.51961" lon="1.55948">
        <ele>177.2</ele>
        <time>2026-04-26T15:56:53Z</time>
      </trkpt>
      <trkpt lat="44.51961" lon="1.55948">
        <ele>177.3</ele>
        <time>2026-04-26T15:56:54Z</time>
      </trkpt>
      <trkpt lat="44.51961" lon="1.55948">
        <ele>177.3</ele>
        <time>2026-04-26T15:56:57Z</time>
      </trkpt>
      <trkpt lat="44.51961" lon="1.55948">
        <ele>177.3</ele>
        <time>2026-04-26T15:56:58Z</time>
      </trkpt>
      <trkpt lat="44.5196" lon="1.55948">
        <ele>177.3</ele>
        <time>2026-04-26T15:56:59Z</time>
      </trkpt>
      <trkpt lat="44.51953" lon="1.55941">
        <ele>177</ele>
        <time>2026-04-26T15:57:12Z</time>
      </trkpt>
      <trkpt lat="44.51945" lon="1.55932">
        <ele>175.4</ele>
        <time>2026-04-26T15:57:25Z</time>
      </trkpt>
      <trkpt lat="44.5194" lon="1.55922">
        <ele>173.8</ele>
        <time>2026-04-26T15:57:36Z</time>
      </trkpt>
      <trkpt lat="44.51937" lon="1.55909">
        <ele>172.7</ele>
        <time>2026-04-26T15:57:46Z</time>
      </trkpt>
      <trkpt lat="44.51933" lon="1.55896">
        <ele>171.4</ele>
        <time>2026-04-26T15:57:57Z</time>
      </trkpt>
      <trkpt lat="44.51928" lon="1.55886">
        <ele>170.8</ele>
        <time>2026-04-26T15:58:05Z</time>
      </trkpt>
      <trkpt lat="44.51922" lon="1.55876">
        <ele>170</ele>
        <time>2026-04-26T15:58:14Z</time>
      </trkpt>
      <trkpt lat="44.51914" lon="1.55868">
        <ele>168.7</ele>
        <time>2026-04-26T15:58:25Z</time>
      </trkpt>
      <trkpt lat="44.51913" lon="1.55868">
        <ele>168.2</ele>
        <time>2026-04-26T15:58:37Z</time>
      </trkpt>
      <trkpt lat="44.51913" lon="1.55868">
        <ele>168.1</ele>
        <time>2026-04-26T15:58:38Z</time>
      </trkpt>
      <trkpt lat="44.51913" lon="1.55868">
        <ele>168.1</ele>
        <time>2026-04-26T15:58:39Z</time>
      </trkpt>
      <trkpt lat="44.51912" lon="1.55866">
        <ele>167.8</ele>
        <time>2026-04-26T15:58:47Z</time>
      </trkpt>
      <trkpt lat="44.51912" lon="1.55866">
        <ele>167.8</ele>
        <time>2026-04-26T15:58:48Z</time>
      </trkpt>
      <trkpt lat="44.51912" lon="1.55866">
        <ele>167.8</ele>
        <time>2026-04-26T15:58:49Z</time>
      </trkpt>
      <trkpt lat="44.51912" lon="1.55866">
        <ele>167.8</ele>
        <time>2026-04-26T15:58:50Z</time>
      </trkpt>
      <trkpt lat="44.51913" lon="1.55867">
        <ele>167.7</ele>
        <time>2026-04-26T15:58:51Z</time>
      </trkpt>
      <trkpt lat="44.51912" lon="1.55866">
        <ele>167.7</ele>
        <time>2026-04-26T15:59:00Z</time>
      </trkpt>
      <trkpt lat="44.51912" lon="1.55866">
        <ele>167.6</ele>
        <time>2026-04-26T15:59:01Z</time>
      </trkpt>
      <trkpt lat="44.51912" lon="1.55866">
        <ele>167.6</ele>
        <time>2026-04-26T15:59:02Z</time>
      </trkpt>
      <trkpt lat="44.51912" lon="1.55866">
        <ele>167.6</ele>
        <time>2026-04-26T15:59:03Z</time>
      </trkpt>
      <trkpt lat="44.51911" lon="1.55862">
        <ele>167.4</ele>
        <time>2026-04-26T15:59:40Z</time>
      </trkpt>
      <trkpt lat="44.51912" lon="1.55862">
        <ele>167.4</ele>
        <time>2026-04-26T15:59:41Z</time>
      </trkpt>
      <trkpt lat="44.51912" lon="1.55863">
        <ele>167.4</ele>
        <time>2026-04-26T15:59:42Z</time>
      </trkpt>
      <trkpt lat="44.51912" lon="1.55863">
        <ele>167.5</ele>
        <time>2026-04-26T15:59:43Z</time>
      </trkpt>
      <trkpt lat="44.51912" lon="1.55863">
        <ele>167.5</ele>
        <time>2026-04-26T15:59:44Z</time>
      </trkpt>
      <trkpt lat="44.51912" lon="1.55863">
        <ele>167.5</ele>
        <time>2026-04-26T15:59:45Z</time>
      </trkpt>
      <trkpt lat="44.51912" lon="1.55863">
        <ele>167.5</ele>
        <time>2026-04-26T15:59:46Z</time>
      </trkpt>
      <trkpt lat="44.51912" lon="1.55863">
        <ele>167.5</ele>
        <time>2026-04-26T15:59:47Z</time>
      </trkpt>
      <trkpt lat="44.51911" lon="1.55863">
        <ele>167.5</ele>
        <time>2026-04-26T15:59:48Z</time>
      </trkpt>
      <trkpt lat="44.51911" lon="1.55863">
        <ele>167.5</ele>
        <time>2026-04-26T15:59:49Z</time>
      </trkpt>
      <trkpt lat="44.51911" lon="1.55864">
        <ele>167.5</ele>
        <time>2026-04-26T15:59:57Z</time>
      </trkpt>
      <trkpt lat="44.51911" lon="1.55864">
        <ele>167.5</ele>
        <time>2026-04-26T15:59:58Z</time>
      </trkpt>
      <trkpt lat="44.51911" lon="1.55865">
        <ele>167.5</ele>
        <time>2026-04-26T15:59:59Z</time>
      </trkpt>
      <trkpt lat="44.5191" lon="1.55864">
        <ele>167.5</ele>
        <time>2026-04-26T16:00:07Z</time>
      </trkpt>
      <trkpt lat="44.5191" lon="1.55864">
        <ele>167.5</ele>
        <time>2026-04-26T16:00:08Z</time>
      </trkpt>
      <trkpt lat="44.5191" lon="1.55863">
        <ele>167.5</ele>
        <time>2026-04-26T16:00:09Z</time>
      </trkpt>
      <trkpt lat="44.51909" lon="1.55863">
        <ele>167.5</ele>
        <time>2026-04-26T16:00:10Z</time>
      </trkpt>
      <trkpt lat="44.51909" lon="1.55863">
        <ele>167.5</ele>
        <time>2026-04-26T16:00:11Z</time>
      </trkpt>
      <trkpt lat="44.519" lon="1.55856">
        <ele>167.1</ele>
        <time>2026-04-26T16:00:22Z</time>
      </trkpt>
      <trkpt lat="44.51899" lon="1.55855">
        <ele>166.7</ele>
        <time>2026-04-26T16:00:30Z</time>
      </trkpt>
      <trkpt lat="44.51899" lon="1.55855">
        <ele>166.6</ele>
        <time>2026-04-26T16:00:31Z</time>
      </trkpt>
      <trkpt lat="44.51897" lon="1.55855">
        <ele>166.3</ele>
        <time>2026-04-26T16:00:40Z</time>
      </trkpt>
      <trkpt lat="44.51896" lon="1.55856">
        <ele>166.3</ele>
        <time>2026-04-26T16:00:41Z</time>
      </trkpt>
      <trkpt lat="44.51887" lon="1.55859">
        <ele>165.7</ele>
        <time>2026-04-26T16:00:53Z</time>
      </trkpt>
      <trkpt lat="44.51878" lon="1.55862">
        <ele>165.6</ele>
        <time>2026-04-26T16:01:03Z</time>
      </trkpt>
      <trkpt lat="44.51868" lon="1.55866">
        <ele>165.8</ele>
        <time>2026-04-26T16:01:12Z</time>
      </trkpt>
      <trkpt lat="44.51859" lon="1.55866">
        <ele>166.2</ele>
        <time>2026-04-26T16:01:21Z</time>
      </trkpt>
      <trkpt lat="44.5185" lon="1.55864">
        <ele>166.4</ele>
        <time>2026-04-26T16:01:28Z</time>
      </trkpt>
      <trkpt lat="44.5184" lon="1.55862">
        <ele>166.5</ele>
        <time>2026-04-26T16:01:37Z</time>
      </trkpt>
      <trkpt lat="44.51831" lon="1.55865">
        <ele>166.5</ele>
        <time>2026-04-26T16:01:45Z</time>
      </trkpt>
      <trkpt lat="44.51821" lon="1.55862">
        <ele>166.5</ele>
        <time>2026-04-26T16:01:54Z</time>
      </trkpt>
      <trkpt lat="44.51811" lon="1.5586">
        <ele>166.5</ele>
        <time>2026-04-26T16:02:03Z</time>
      </trkpt>
      <trkpt lat="44.51802" lon="1.55857">
        <ele>166.7</ele>
        <time>2026-04-26T16:02:12Z</time>
      </trkpt>
      <trkpt lat="44.51792" lon="1.55854">
        <ele>167.9</ele>
        <time>2026-04-26T16:02:24Z</time>
      </trkpt>
      <trkpt lat="44.51783" lon="1.5585">
        <ele>169.8</ele>
        <time>2026-04-26T16:02:35Z</time>
      </trkpt>
      <trkpt lat="44.51775" lon="1.55842">
        <ele>170.4</ele>
        <time>2026-04-26T16:02:44Z</time>
      </trkpt>
      <trkpt lat="44.51767" lon="1.55835">
        <ele>170.5</ele>
        <time>2026-04-26T16:02:54Z</time>
      </trkpt>
      <trkpt lat="44.51762" lon="1.55825">
        <ele>170.4</ele>
        <time>2026-04-26T16:03:04Z</time>
      </trkpt>
      <trkpt lat="44.51756" lon="1.55815">
        <ele>169.5</ele>
        <time>2026-04-26T16:03:16Z</time>
      </trkpt>
      <trkpt lat="44.51748" lon="1.55806">
        <ele>168.2</ele>
        <time>2026-04-26T16:03:27Z</time>
      </trkpt>
      <trkpt lat="44.51741" lon="1.55799">
        <ele>167.6</ele>
        <time>2026-04-26T16:03:35Z</time>
      </trkpt>
      <trkpt lat="44.51733" lon="1.5579">
        <ele>167.1</ele>
        <time>2026-04-26T16:03:44Z</time>
      </trkpt>
      <trkpt lat="44.51726" lon="1.55782">
        <ele>166.8</ele>
        <time>2026-04-26T16:03:52Z</time>
      </trkpt>
      <trkpt lat="44.51718" lon="1.55775">
        <ele>166.4</ele>
        <time>2026-04-26T16:04:01Z</time>
      </trkpt>
      <trkpt lat="44.51711" lon="1.55766">
        <ele>165.3</ele>
        <time>2026-04-26T16:04:12Z</time>
      </trkpt>
      <trkpt lat="44.51703" lon="1.55754">
        <ele>165.1</ele>
        <time>2026-04-26T16:04:21Z</time>
      </trkpt>
      <trkpt lat="44.51697" lon="1.55744">
        <ele>165.2</ele>
        <time>2026-04-26T16:04:30Z</time>
      </trkpt>
      <trkpt lat="44.5169" lon="1.55735">
        <ele>164.8</ele>
        <time>2026-04-26T16:04:41Z</time>
      </trkpt>
      <trkpt lat="44.51682" lon="1.55728">
        <ele>164.5</ele>
        <time>2026-04-26T16:04:51Z</time>
      </trkpt>
      <trkpt lat="44.51674" lon="1.55721">
        <ele>164.5</ele>
        <time>2026-04-26T16:05:02Z</time>
      </trkpt>
      <trkpt lat="44.51664" lon="1.55717">
        <ele>164.5</ele>
        <time>2026-04-26T16:05:13Z</time>
      </trkpt>
      <trkpt lat="44.51657" lon="1.55709">
        <ele>164.6</ele>
        <time>2026-04-26T16:05:20Z</time>
      </trkpt>
      <trkpt lat="44.51649" lon="1.55704">
        <ele>164.7</ele>
        <time>2026-04-26T16:05:28Z</time>
      </trkpt>
      <trkpt lat="44.5164" lon="1.557">
        <ele>164.8</ele>
        <time>2026-04-26T16:05:38Z</time>
      </trkpt>
      <trkpt lat="44.51631" lon="1.55698">
        <ele>164.8</ele>
        <time>2026-04-26T16:05:46Z</time>
      </trkpt>
      <trkpt lat="44.51622" lon="1.55702">
        <ele>164.7</ele>
        <time>2026-04-26T16:05:55Z</time>
      </trkpt>
      <trkpt lat="44.51613" lon="1.55703">
        <ele>164.7</ele>
        <time>2026-04-26T16:06:04Z</time>
      </trkpt>
      <trkpt lat="44.51604" lon="1.55706">
        <ele>164.7</ele>
        <time>2026-04-26T16:06:13Z</time>
      </trkpt>
      <trkpt lat="44.51594" lon="1.55706">
        <ele>164.7</ele>
        <time>2026-04-26T16:06:22Z</time>
      </trkpt>
      <trkpt lat="44.51584" lon="1.55709">
        <ele>164.7</ele>
        <time>2026-04-26T16:06:30Z</time>
      </trkpt>
      <trkpt lat="44.51575" lon="1.55707">
        <ele>164.6</ele>
        <time>2026-04-26T16:06:37Z</time>
      </trkpt>
      <trkpt lat="44.51565" lon="1.55708">
        <ele>164.5</ele>
        <time>2026-04-26T16:06:44Z</time>
      </trkpt>
      <trkpt lat="44.51556" lon="1.55711">
        <ele>164.4</ele>
        <time>2026-04-26T16:06:53Z</time>
      </trkpt>
      <trkpt lat="44.51547" lon="1.55713">
        <ele>164.3</ele>
        <time>2026-04-26T16:07:02Z</time>
      </trkpt>
      <trkpt lat="44.51538" lon="1.55718">
        <ele>164.2</ele>
        <time>2026-04-26T16:07:11Z</time>
      </trkpt>
      <trkpt lat="44.51529" lon="1.55726">
        <ele>164.2</ele>
        <time>2026-04-26T16:07:19Z</time>
      </trkpt>
      <trkpt lat="44.51521" lon="1.55733">
        <ele>164.1</ele>
        <time>2026-04-26T16:07:25Z</time>
      </trkpt>
      <trkpt lat="44.51513" lon="1.5574">
        <ele>164.1</ele>
        <time>2026-04-26T16:07:32Z</time>
      </trkpt>
      <trkpt lat="44.51505" lon="1.55746">
        <ele>164.1</ele>
        <time>2026-04-26T16:07:39Z</time>
      </trkpt>
      <trkpt lat="44.51498" lon="1.55754">
        <ele>164</ele>
        <time>2026-04-26T16:07:48Z</time>
      </trkpt>
      <trkpt lat="44.51491" lon="1.55762">
        <ele>163.9</ele>
        <time>2026-04-26T16:08:00Z</time>
      </trkpt>
      <trkpt lat="44.51483" lon="1.55769">
        <ele>163.8</ele>
        <time>2026-04-26T16:08:05Z</time>
      </trkpt>
      <trkpt lat="44.51477" lon="1.55779">
        <ele>163.5</ele>
        <time>2026-04-26T16:08:16Z</time>
      </trkpt>
      <trkpt lat="44.51471" lon="1.5579">
        <ele>163.4</ele>
        <time>2026-04-26T16:08:23Z</time>
      </trkpt>
      <trkpt lat="44.51466" lon="1.55802">
        <ele>163.4</ele>
        <time>2026-04-26T16:08:31Z</time>
      </trkpt>
      <trkpt lat="44.51461" lon="1.55813">
        <ele>163.5</ele>
        <time>2026-04-26T16:08:38Z</time>
      </trkpt>
      <trkpt lat="44.51457" lon="1.55827">
        <ele>163.6</ele>
        <time>2026-04-26T16:08:46Z</time>
      </trkpt>
      <trkpt lat="44.51452" lon="1.55838">
        <ele>163.6</ele>
        <time>2026-04-26T16:08:54Z</time>
      </trkpt>
      <trkpt lat="44.51449" lon="1.55852">
        <ele>163.7</ele>
        <time>2026-04-26T16:09:07Z</time>
      </trkpt>
      <trkpt lat="44.51444" lon="1.55865">
        <ele>163.7</ele>
        <time>2026-04-26T16:09:18Z</time>
      </trkpt>
      <trkpt lat="44.51437" lon="1.55875">
        <ele>163.8</ele>
        <time>2026-04-26T16:09:30Z</time>
      </trkpt>
      <trkpt lat="44.51429" lon="1.55883">
        <ele>163.8</ele>
        <time>2026-04-26T16:09:38Z</time>
      </trkpt>
      <trkpt lat="44.5142" lon="1.55885">
        <ele>163.8</ele>
        <time>2026-04-26T16:09:46Z</time>
      </trkpt>
      <trkpt lat="44.51414" lon="1.55875">
        <ele>164.7</ele>
        <time>2026-04-26T16:10:15Z</time>
      </trkpt>
      <trkpt lat="44.51412" lon="1.55861">
        <ele>164.9</ele>
        <time>2026-04-26T16:10:24Z</time>
      </trkpt>
      <trkpt lat="44.51412" lon="1.55848">
        <ele>164.7</ele>
        <time>2026-04-26T16:10:38Z</time>
      </trkpt>
      <trkpt lat="44.51417" lon="1.55835">
        <ele>164.5</ele>
        <time>2026-04-26T16:10:46Z</time>
      </trkpt>
      <trkpt lat="44.51416" lon="1.55821">
        <ele>164.3</ele>
        <time>2026-04-26T16:10:52Z</time>
      </trkpt>
      <trkpt lat="44.51415" lon="1.55808">
        <ele>164.2</ele>
        <time>2026-04-26T16:10:57Z</time>
      </trkpt>
      <trkpt lat="44.51413" lon="1.55795">
        <ele>163.9</ele>
        <time>2026-04-26T16:11:05Z</time>
      </trkpt>
      <trkpt lat="44.51411" lon="1.55787">
        <ele>163.8</ele>
        <time>2026-04-26T16:11:13Z</time>
      </trkpt>
      <trkpt lat="44.51411" lon="1.55787">
        <ele>163.8</ele>
        <time>2026-04-26T16:11:14Z</time>
      </trkpt>
      <trkpt lat="44.51403" lon="1.55777">
        <ele>163.5</ele>
        <time>2026-04-26T16:11:28Z</time>
      </trkpt>
      <trkpt lat="44.51396" lon="1.55767">
        <ele>163.3</ele>
        <time>2026-04-26T16:11:36Z</time>
      </trkpt>
      <trkpt lat="44.51387" lon="1.55761">
        <ele>163.2</ele>
        <time>2026-04-26T16:11:44Z</time>
      </trkpt>
      <trkpt lat="44.51378" lon="1.55758">
        <ele>163.2</ele>
        <time>2026-04-26T16:11:53Z</time>
      </trkpt>
      <trkpt lat="44.51369" lon="1.55754">
        <ele>163.3</ele>
        <time>2026-04-26T16:12:06Z</time>
      </trkpt>
      <trkpt lat="44.5136" lon="1.55752">
        <ele>163.5</ele>
        <time>2026-04-26T16:12:18Z</time>
      </trkpt>
      <trkpt lat="44.5135" lon="1.55753">
        <ele>163.7</ele>
        <time>2026-04-26T16:12:30Z</time>
      </trkpt>
      <trkpt lat="44.51341" lon="1.55753">
        <ele>164</ele>
        <time>2026-04-26T16:12:39Z</time>
      </trkpt>
      <trkpt lat="44.51331" lon="1.55754">
        <ele>164.1</ele>
        <time>2026-04-26T16:12:49Z</time>
      </trkpt>
      <trkpt lat="44.51322" lon="1.55753">
        <ele>164</ele>
        <time>2026-04-26T16:12:57Z</time>
      </trkpt>
      <trkpt lat="44.51313" lon="1.55749">
        <ele>163.8</ele>
        <time>2026-04-26T16:13:06Z</time>
      </trkpt>
      <trkpt lat="44.51304" lon="1.55747">
        <ele>163.7</ele>
        <time>2026-04-26T16:13:14Z</time>
      </trkpt>
      <trkpt lat="44.51295" lon="1.55742">
        <ele>163.6</ele>
        <time>2026-04-26T16:13:23Z</time>
      </trkpt>
      <trkpt lat="44.51286" lon="1.55743">
        <ele>163.6</ele>
        <time>2026-04-26T16:13:31Z</time>
      </trkpt>
      <trkpt lat="44.51277" lon="1.55748">
        <ele>163.6</ele>
        <time>2026-04-26T16:13:38Z</time>
      </trkpt>
      <trkpt lat="44.51269" lon="1.55752">
        <ele>163.6</ele>
        <time>2026-04-26T16:13:47Z</time>
      </trkpt>
      <trkpt lat="44.51259" lon="1.55754">
        <ele>163.6</ele>
        <time>2026-04-26T16:13:57Z</time>
      </trkpt>
      <trkpt lat="44.5125" lon="1.55752">
        <ele>163.6</ele>
        <time>2026-04-26T16:14:04Z</time>
      </trkpt>
      <trkpt lat="44.51241" lon="1.55752">
        <ele>163.5</ele>
        <time>2026-04-26T16:14:11Z</time>
      </trkpt>
      <trkpt lat="44.51232" lon="1.55755">
        <ele>163.5</ele>
        <time>2026-04-26T16:14:18Z</time>
      </trkpt>
      <trkpt lat="44.51223" lon="1.55758">
        <ele>163.6</ele>
        <time>2026-04-26T16:14:30Z</time>
      </trkpt>
      <trkpt lat="44.51214" lon="1.55762">
        <ele>163.9</ele>
        <time>2026-04-26T16:14:37Z</time>
      </trkpt>
      <trkpt lat="44.51205" lon="1.55764">
        <ele>164.2</ele>
        <time>2026-04-26T16:14:47Z</time>
      </trkpt>
      <trkpt lat="44.51195" lon="1.55765">
        <ele>164.2</ele>
        <time>2026-04-26T16:14:55Z</time>
      </trkpt>
      <trkpt lat="44.51186" lon="1.55762">
        <ele>164.1</ele>
        <time>2026-04-26T16:15:04Z</time>
      </trkpt>
      <trkpt lat="44.51177" lon="1.55766">
        <ele>163.7</ele>
        <time>2026-04-26T16:15:14Z</time>
      </trkpt>
      <trkpt lat="44.51168" lon="1.55768">
        <ele>163.3</ele>
        <time>2026-04-26T16:15:24Z</time>
      </trkpt>
      <trkpt lat="44.51158" lon="1.5577">
        <ele>163.1</ele>
        <time>2026-04-26T16:15:34Z</time>
      </trkpt>
      <trkpt lat="44.51149" lon="1.55772">
        <ele>163</ele>
        <time>2026-04-26T16:15:42Z</time>
      </trkpt>
      <trkpt lat="44.51139" lon="1.55773">
        <ele>162.9</ele>
        <time>2026-04-26T16:15:48Z</time>
      </trkpt>
      <trkpt lat="44.51129" lon="1.55775">
        <ele>162.9</ele>
        <time>2026-04-26T16:15:56Z</time>
      </trkpt>
      <trkpt lat="44.51119" lon="1.55775">
        <ele>162.9</ele>
        <time>2026-04-26T16:16:04Z</time>
      </trkpt>
      <trkpt lat="44.51109" lon="1.55774">
        <ele>162.9</ele>
        <time>2026-04-26T16:16:11Z</time>
      </trkpt>
      <trkpt lat="44.511" lon="1.55777">
        <ele>162.9</ele>
        <time>2026-04-26T16:16:19Z</time>
      </trkpt>
      <trkpt lat="44.51091" lon="1.55778">
        <ele>163</ele>
        <time>2026-04-26T16:16:28Z</time>
      </trkpt>
      <trkpt lat="44.51081" lon="1.5578">
        <ele>163</ele>
        <time>2026-04-26T16:16:36Z</time>
      </trkpt>
      <trkpt lat="44.51071" lon="1.55782">
        <ele>163.1</ele>
        <time>2026-04-26T16:16:45Z</time>
      </trkpt>
      <trkpt lat="44.51062" lon="1.55783">
        <ele>163.3</ele>
        <time>2026-04-26T16:16:54Z</time>
      </trkpt>
      <trkpt lat="44.51053" lon="1.5578">
        <ele>163.5</ele>
        <time>2026-04-26T16:17:02Z</time>
      </trkpt>
      <trkpt lat="44.51044" lon="1.55783">
        <ele>163.9</ele>
        <time>2026-04-26T16:17:10Z</time>
      </trkpt>
      <trkpt lat="44.51034" lon="1.55783">
        <ele>164.3</ele>
        <time>2026-04-26T16:17:20Z</time>
      </trkpt>
      <trkpt lat="44.51025" lon="1.55784">
        <ele>164.4</ele>
        <time>2026-04-26T16:17:29Z</time>
      </trkpt>
      <trkpt lat="44.51015" lon="1.55782">
        <ele>163.8</ele>
        <time>2026-04-26T16:17:45Z</time>
      </trkpt>
      <trkpt lat="44.51005" lon="1.55786">
        <ele>163.4</ele>
        <time>2026-04-26T16:17:55Z</time>
      </trkpt>
      <trkpt lat="44.50996" lon="1.55783">
        <ele>163.1</ele>
        <time>2026-04-26T16:18:03Z</time>
      </trkpt>
      <trkpt lat="44.50987" lon="1.55776">
        <ele>162.8</ele>
        <time>2026-04-26T16:18:10Z</time>
      </trkpt>
      <trkpt lat="44.50978" lon="1.55773">
        <ele>162.7</ele>
        <time>2026-04-26T16:18:16Z</time>
      </trkpt>
      <trkpt lat="44.50968" lon="1.55771">
        <ele>162.8</ele>
        <time>2026-04-26T16:18:22Z</time>
      </trkpt>
      <trkpt lat="44.50959" lon="1.55767">
        <ele>162.9</ele>
        <time>2026-04-26T16:18:28Z</time>
      </trkpt>
      <trkpt lat="44.50949" lon="1.55769">
        <ele>162.9</ele>
        <time>2026-04-26T16:18:34Z</time>
      </trkpt>
      <trkpt lat="44.5094" lon="1.55769">
        <ele>163</ele>
        <time>2026-04-26T16:18:43Z</time>
      </trkpt>
      <trkpt lat="44.5093" lon="1.55769">
        <ele>162.9</ele>
        <time>2026-04-26T16:18:53Z</time>
      </trkpt>
      <trkpt lat="44.50921" lon="1.55768">
        <ele>162.7</ele>
        <time>2026-04-26T16:19:00Z</time>
      </trkpt>
      <trkpt lat="44.50911" lon="1.55767">
        <ele>162.4</ele>
        <time>2026-04-26T16:19:10Z</time>
      </trkpt>
      <trkpt lat="44.50902" lon="1.55762">
        <ele>162</ele>
        <time>2026-04-26T16:19:21Z</time>
      </trkpt>
      <trkpt lat="44.50893" lon="1.55758">
        <ele>161.4</ele>
        <time>2026-04-26T16:19:33Z</time>
      </trkpt>
      <trkpt lat="44.50884" lon="1.55752">
        <ele>161.1</ele>
        <time>2026-04-26T16:19:41Z</time>
      </trkpt>
      <trkpt lat="44.50875" lon="1.55747">
        <ele>161.1</ele>
        <time>2026-04-26T16:19:49Z</time>
      </trkpt>
      <trkpt lat="44.50867" lon="1.55743">
        <ele>161.1</ele>
        <time>2026-04-26T16:19:58Z</time>
      </trkpt>
      <trkpt lat="44.50858" lon="1.55738">
        <ele>161.1</ele>
        <time>2026-04-26T16:20:05Z</time>
      </trkpt>
      <trkpt lat="44.5085" lon="1.55732">
        <ele>161</ele>
        <time>2026-04-26T16:20:15Z</time>
      </trkpt>
      <trkpt lat="44.50841" lon="1.55724">
        <ele>161</ele>
        <time>2026-04-26T16:20:24Z</time>
      </trkpt>
      <trkpt lat="44.50833" lon="1.5572">
        <ele>161</ele>
        <time>2026-04-26T16:20:32Z</time>
      </trkpt>
      <trkpt lat="44.50824" lon="1.55716">
        <ele>161</ele>
        <time>2026-04-26T16:20:39Z</time>
      </trkpt>
      <trkpt lat="44.50817" lon="1.55707">
        <ele>160.8</ele>
        <time>2026-04-26T16:20:50Z</time>
      </trkpt>
      <trkpt lat="44.5081" lon="1.55698">
        <ele>160.4</ele>
        <time>2026-04-26T16:21:00Z</time>
      </trkpt>
      <trkpt lat="44.50801" lon="1.55693">
        <ele>160.1</ele>
        <time>2026-04-26T16:21:09Z</time>
      </trkpt>
      <trkpt lat="44.50792" lon="1.55691">
        <ele>160.1</ele>
        <time>2026-04-26T16:21:18Z</time>
      </trkpt>
      <trkpt lat="44.50784" lon="1.55683">
        <ele>160.3</ele>
        <time>2026-04-26T16:21:29Z</time>
      </trkpt>
      <trkpt lat="44.50777" lon="1.55675">
        <ele>160.4</ele>
        <time>2026-04-26T16:21:36Z</time>
      </trkpt>
      <trkpt lat="44.5077" lon="1.55666">
        <ele>160.5</ele>
        <time>2026-04-26T16:21:42Z</time>
      </trkpt>
      <trkpt lat="44.50763" lon="1.55657">
        <ele>160.5</ele>
        <time>2026-04-26T16:21:50Z</time>
      </trkpt>
      <trkpt lat="44.50757" lon="1.55647">
        <ele>160.5</ele>
        <time>2026-04-26T16:21:58Z</time>
      </trkpt>
      <trkpt lat="44.50751" lon="1.55637">
        <ele>160.5</ele>
        <time>2026-04-26T16:22:08Z</time>
      </trkpt>
      <trkpt lat="44.50744" lon="1.55628">
        <ele>160.5</ele>
        <time>2026-04-26T16:22:15Z</time>
      </trkpt>
      <trkpt lat="44.50738" lon="1.55618">
        <ele>160.6</ele>
        <time>2026-04-26T16:22:23Z</time>
      </trkpt>
      <trkpt lat="44.50732" lon="1.55607">
        <ele>160.7</ele>
        <time>2026-04-26T16:22:31Z</time>
      </trkpt>
      <trkpt lat="44.50727" lon="1.55597">
        <ele>160.9</ele>
        <time>2026-04-26T16:22:39Z</time>
      </trkpt>
      <trkpt lat="44.50718" lon="1.55589">
        <ele>161.1</ele>
        <time>2026-04-26T16:22:48Z</time>
      </trkpt>
      <trkpt lat="44.5071" lon="1.55582">
        <ele>161.4</ele>
        <time>2026-04-26T16:22:58Z</time>
      </trkpt>
      <trkpt lat="44.50702" lon="1.55573">
        <ele>161.5</ele>
        <time>2026-04-26T16:23:10Z</time>
      </trkpt>
      <trkpt lat="44.50693" lon="1.55567">
        <ele>160.6</ele>
        <time>2026-04-26T16:23:22Z</time>
      </trkpt>
      <trkpt lat="44.50686" lon="1.55557">
        <ele>159.9</ele>
        <time>2026-04-26T16:23:31Z</time>
      </trkpt>
      <trkpt lat="44.50678" lon="1.55551">
        <ele>159.7</ele>
        <time>2026-04-26T16:23:38Z</time>
      </trkpt>
      <trkpt lat="44.50669" lon="1.55545">
        <ele>159.6</ele>
        <time>2026-04-26T16:23:46Z</time>
      </trkpt>
      <trkpt lat="44.50661" lon="1.55539">
        <ele>159.5</ele>
        <time>2026-04-26T16:23:54Z</time>
      </trkpt>
      <trkpt lat="44.50652" lon="1.55534">
        <ele>159.3</ele>
        <time>2026-04-26T16:24:05Z</time>
      </trkpt>
      <trkpt lat="44.50645" lon="1.55527">
        <ele>159.2</ele>
        <time>2026-04-26T16:24:11Z</time>
      </trkpt>
      <trkpt lat="44.50636" lon="1.5552">
        <ele>159.1</ele>
        <time>2026-04-26T16:24:21Z</time>
      </trkpt>
      <trkpt lat="44.50628" lon="1.55514">
        <ele>159</ele>
        <time>2026-04-26T16:24:30Z</time>
      </trkpt>
      <trkpt lat="44.50618" lon="1.55511">
        <ele>158.8</ele>
        <time>2026-04-26T16:24:38Z</time>
      </trkpt>
      <trkpt lat="44.50609" lon="1.55506">
        <ele>158.7</ele>
        <time>2026-04-26T16:24:46Z</time>
      </trkpt>
      <trkpt lat="44.506" lon="1.55503">
        <ele>158.7</ele>
        <time>2026-04-26T16:24:55Z</time>
      </trkpt>
      <trkpt lat="44.50591" lon="1.55498">
        <ele>158.7</ele>
        <time>2026-04-26T16:25:03Z</time>
      </trkpt>
      <trkpt lat="44.50581" lon="1.55496">
        <ele>158.7</ele>
        <time>2026-04-26T16:25:15Z</time>
      </trkpt>
      <trkpt lat="44.50572" lon="1.55495">
        <ele>158.7</ele>
        <time>2026-04-26T16:25:24Z</time>
      </trkpt>
      <trkpt lat="44.50563" lon="1.55492">
        <ele>158.7</ele>
        <time>2026-04-26T16:25:35Z</time>
      </trkpt>
      <trkpt lat="44.50553" lon="1.55495">
        <ele>158.6</ele>
        <time>2026-04-26T16:25:47Z</time>
      </trkpt>
      <trkpt lat="44.50545" lon="1.55503">
        <ele>158.6</ele>
        <time>2026-04-26T16:25:59Z</time>
      </trkpt>
      <trkpt lat="44.50538" lon="1.55511">
        <ele>158.4</ele>
        <time>2026-04-26T16:26:09Z</time>
      </trkpt>
      <trkpt lat="44.50531" lon="1.55522">
        <ele>158.3</ele>
        <time>2026-04-26T16:26:17Z</time>
      </trkpt>
      <trkpt lat="44.50524" lon="1.5553">
        <ele>158.3</ele>
        <time>2026-04-26T16:26:24Z</time>
      </trkpt>
      <trkpt lat="44.50516" lon="1.55538">
        <ele>158.2</ele>
        <time>2026-04-26T16:26:30Z</time>
      </trkpt>
      <trkpt lat="44.50509" lon="1.55548">
        <ele>158.1</ele>
        <time>2026-04-26T16:26:39Z</time>
      </trkpt>
      <trkpt lat="44.50504" lon="1.55559">
        <ele>158.1</ele>
        <time>2026-04-26T16:26:48Z</time>
      </trkpt>
      <trkpt lat="44.50497" lon="1.55568">
        <ele>158.1</ele>
        <time>2026-04-26T16:26:56Z</time>
      </trkpt>
      <trkpt lat="44.50492" lon="1.55578">
        <ele>158.1</ele>
        <time>2026-04-26T16:27:04Z</time>
      </trkpt>
      <trkpt lat="44.50485" lon="1.55588">
        <ele>158.2</ele>
        <time>2026-04-26T16:27:12Z</time>
      </trkpt>
      <trkpt lat="44.50478" lon="1.55597">
        <ele>158.4</ele>
        <time>2026-04-26T16:27:22Z</time>
      </trkpt>
      <trkpt lat="44.50471" lon="1.55605">
        <ele>158.6</ele>
        <time>2026-04-26T16:27:30Z</time>
      </trkpt>
      <trkpt lat="44.50463" lon="1.55611">
        <ele>158.9</ele>
        <time>2026-04-26T16:27:39Z</time>
      </trkpt>
      <trkpt lat="44.50455" lon="1.55619">
        <ele>159</ele>
        <time>2026-04-26T16:27:48Z</time>
      </trkpt>
      <trkpt lat="44.50446" lon="1.55625">
        <ele>158.9</ele>
        <time>2026-04-26T16:27:56Z</time>
      </trkpt>
      <trkpt lat="44.50438" lon="1.55631">
        <ele>158.8</ele>
        <time>2026-04-26T16:28:06Z</time>
      </trkpt>
      <trkpt lat="44.50434" lon="1.55633">
        <ele>158.7</ele>
        <time>2026-04-26T16:28:12Z</time>
      </trkpt>
      <trkpt lat="44.50434" lon="1.55633">
        <ele>158.7</ele>
        <time>2026-04-26T16:28:13Z</time>
      </trkpt>
      <trkpt lat="44.50433" lon="1.55634">
        <ele>158.6</ele>
        <time>2026-04-26T16:28:14Z</time>
      </trkpt>
      <trkpt lat="44.50432" lon="1.55635">
        <ele>158.6</ele>
        <time>2026-04-26T16:28:15Z</time>
      </trkpt>
      <trkpt lat="44.50431" lon="1.55635">
        <ele>158.6</ele>
        <time>2026-04-26T16:28:16Z</time>
      </trkpt>
      <trkpt lat="44.50423" lon="1.55641">
        <ele>158.3</ele>
        <time>2026-04-26T16:28:29Z</time>
      </trkpt>
      <trkpt lat="44.50415" lon="1.55647">
        <ele>158.2</ele>
        <time>2026-04-26T16:28:36Z</time>
      </trkpt>
      <trkpt lat="44.50405" lon="1.55653">
        <ele>157.9</ele>
        <time>2026-04-26T16:28:45Z</time>
      </trkpt>
      <trkpt lat="44.50395" lon="1.55655">
        <ele>157.6</ele>
        <time>2026-04-26T16:28:52Z</time>
      </trkpt>
      <trkpt lat="44.50385" lon="1.55659">
        <ele>157.5</ele>
        <time>2026-04-26T16:28:59Z</time>
      </trkpt>
      <trkpt lat="44.50377" lon="1.55666">
        <ele>157.4</ele>
        <time>2026-04-26T16:29:07Z</time>
      </trkpt>
      <trkpt lat="44.50369" lon="1.55671">
        <ele>157.4</ele>
        <time>2026-04-26T16:29:14Z</time>
      </trkpt>
      <trkpt lat="44.50361" lon="1.55678">
        <ele>157.4</ele>
        <time>2026-04-26T16:29:24Z</time>
      </trkpt>
      <trkpt lat="44.50352" lon="1.55681">
        <ele>157.5</ele>
        <time>2026-04-26T16:29:36Z</time>
      </trkpt>
      <trkpt lat="44.50343" lon="1.55681">
        <ele>157.6</ele>
        <time>2026-04-26T16:29:45Z</time>
      </trkpt>
      <trkpt lat="44.50332" lon="1.55682">
        <ele>157.6</ele>
        <time>2026-04-26T16:29:54Z</time>
      </trkpt>
      <trkpt lat="44.50323" lon="1.55685">
        <ele>157.5</ele>
        <time>2026-04-26T16:30:01Z</time>
      </trkpt>
      <trkpt lat="44.50314" lon="1.55689">
        <ele>157.3</ele>
        <time>2026-04-26T16:30:09Z</time>
      </trkpt>
      <trkpt lat="44.50305" lon="1.55688">
        <ele>157.1</ele>
        <time>2026-04-26T16:30:21Z</time>
      </trkpt>
      <trkpt lat="44.50295" lon="1.5569">
        <ele>156.9</ele>
        <time>2026-04-26T16:30:31Z</time>
      </trkpt>
      <trkpt lat="44.50284" lon="1.55689">
        <ele>156.8</ele>
        <time>2026-04-26T16:30:40Z</time>
      </trkpt>
      <trkpt lat="44.50274" lon="1.55685">
        <ele>156.8</ele>
        <time>2026-04-26T16:30:47Z</time>
      </trkpt>
      <trkpt lat="44.50265" lon="1.55684">
        <ele>156.8</ele>
        <time>2026-04-26T16:30:55Z</time>
      </trkpt>
      <trkpt lat="44.50255" lon="1.55681">
        <ele>156.8</ele>
        <time>2026-04-26T16:31:03Z</time>
      </trkpt>
      <trkpt lat="44.50246" lon="1.5568">
        <ele>156.7</ele>
        <time>2026-04-26T16:31:14Z</time>
      </trkpt>
      <trkpt lat="44.50243" lon="1.5568">
        <ele>156.7</ele>
        <time>2026-04-26T16:31:17Z</time>
      </trkpt>
      <trkpt lat="44.50238" lon="1.55681">
        <ele>156.8</ele>
        <time>2026-04-26T16:31:25Z</time>
      </trkpt>
      <trkpt lat="44.50237" lon="1.55681">
        <ele>156.9</ele>
        <time>2026-04-26T16:31:26Z</time>
      </trkpt>
      <trkpt lat="44.50238" lon="1.55679">
        <ele>157</ele>
        <time>2026-04-26T16:31:31Z</time>
      </trkpt>
      <trkpt lat="44.50238" lon="1.55678">
        <ele>157</ele>
        <time>2026-04-26T16:31:32Z</time>
      </trkpt>
      <trkpt lat="44.50238" lon="1.55678">
        <ele>157</ele>
        <time>2026-04-26T16:31:33Z</time>
      </trkpt>
      <trkpt lat="44.50238" lon="1.55678">
        <ele>157</ele>
        <time>2026-04-26T16:31:34Z</time>
      </trkpt>
      <trkpt lat="44.50239" lon="1.5568">
        <ele>159.6</ele>
        <time>2026-04-26T16:31:47Z</time>
      </trkpt>
      <trkpt lat="44.50239" lon="1.5568">
        <ele>159.1</ele>
        <time>2026-04-26T16:31:48Z</time>
      </trkpt>
      <trkpt lat="44.50239" lon="1.5568">
        <ele>158.8</ele>
        <time>2026-04-26T16:31:49Z</time>
      </trkpt>
      <trkpt lat="44.50239" lon="1.55681">
        <ele>157.3</ele>
        <time>2026-04-26T16:32:00Z</time>
      </trkpt>
      <trkpt lat="44.50238" lon="1.55681">
        <ele>157.2</ele>
        <time>2026-04-26T16:32:01Z</time>
      </trkpt>
      <trkpt lat="44.50238" lon="1.55681">
        <ele>157.2</ele>
        <time>2026-04-26T16:32:02Z</time>
      </trkpt>
      <trkpt lat="44.50238" lon="1.55681">
        <ele>157.2</ele>
        <time>2026-04-26T16:32:03Z</time>
      </trkpt>
      <trkpt lat="44.50238" lon="1.55681">
        <ele>157.2</ele>
        <time>2026-04-26T16:32:04Z</time>
      </trkpt>
      <trkpt lat="44.50238" lon="1.55681">
        <ele>157.2</ele>
        <time>2026-04-26T16:32:04Z</time>
      </trkpt>
      <trkpt lat="44.50238" lon="1.55681">
        <ele>157.2</ele>
        <time>2026-04-26T16:32:04Z</time>
      </trkpt>
    </trkseg>
  </trk>
</gpx>